Observation data for Fritch on 06/15/2019      Previous  Date  Next       Current Mesonet Observations  Soil Data  Daily Summary Page  Observations in Plain Language
KFR1 150500Z 19016G21KT 26/11 A2973 RMK A01 T02630112  RH  039%=      5-min Rain = 0
KFR1 150501Z 19015KT 26/11 A2973 RMK A01 T02630113  RH  039%=      5-min Rain = 0
KFR1 150502Z 19015G21KT 26/12 A2972 RMK A01 T02630115  RH  040%=      5-min Rain = 0
KFR1 150503Z 18015G24KT 26/12 A2972 RMK A01 T02630116  RH  040%=      5-min Rain = 0
KFR1 150504Z 18019G24KT 26/12 A2972 RMK A01 T02640118  RH  040%=      5-min Rain = 0
KFR1 150505Z 18020G28KT 27/12 A2972 RMK A01 T02650119  RH  040%=      5-min Rain = 0
KFR1 150506Z 18019G25KT 27/12 A2972 RMK A01 T02660120  RH  040%=      5-min Rain = 0
KFR1 150507Z 18020G28KT 27/12 A2972 RMK A01 T02650122  RH  041%=      5-min Rain = 0
KFR1 150508Z 18021KT 27/12 A2972 RMK A01 T02650123  RH  041%=      5-min Rain = 0
KFR1 150509Z 18018G24KT 27/12 A2972 RMK A01 T02660124  RH  041%=      5-min Rain = 0
KFR1 150510Z 18019G25KT 27/13 A2972 RMK A01 T02660125  RH  042%=      5-min Rain = 0
KFR1 150511Z 19022G27KT 27/13 A2971 RMK A01 T02650126  RH  042%=      5-min Rain = 0
KFR1 150512Z 18020G27KT 27/13 A2972 RMK A01 T02650127  RH  042%=      5-min Rain = 0
KFR1 150513Z 19020G25KT 27/13 A2972 RMK A01 T02650129  RH  043%=      5-min Rain = 0
KFR1 150514Z 19020G27KT 27/13 A2972 RMK A01 T02660130  RH  043%=      5-min Rain = 0
KFR1 150515Z 19020G26KT 27/13 A2972 RMK A01 T02660131  RH  043%=      5-min Rain = 0
KFR1 150516Z 19019KT 27/13 A2972 RMK A01 T02660133  RH  044%=      5-min Rain = 0
KFR1 150517Z 19022KT 27/13 A2972 RMK A01 T02660134  RH  044%=      5-min Rain = 0
KFR1 150518Z 19022KT 27/14 A2972 RMK A01 T02660135  RH  044%=      5-min Rain = 0
KFR1 150519Z 19021G27KT 27/14 A2972 RMK A01 T02670137  RH  045%=      5-min Rain = 0
KFR1 150520Z 19019G27KT 27/14 A2972 RMK A01 T02670138  RH  045%=      5-min Rain = 0
KFR1 150521Z 19021G26KT 27/14 A2972 RMK A01 T02670139  RH  045%=      5-min Rain = 0
KFR1 150522Z 19024KT 27/14 A2972 RMK A01 T02680141  RH  045%=      5-min Rain = 0
KFR1 150523Z 19023G28KT 27/14 A2972 RMK A01 T02690142  RH  046%=      5-min Rain = 0
KFR1 150524Z 19024G30KT 27/14 A2971 RMK A01 T02690143  RH  046%=      5-min Rain = 0
KFR1 150525Z 19022G27KT 27/15 A2972 RMK A01 T02700145  RH  046%=      5-min Rain = 0
KFR1 150526Z 19026G33KT 27/15 A2971 RMK A01 T02700146  RH  046%=      5-min Rain = 0
KFR1 150527Z 19021KT 27/15 A2972 RMK A01 T02710147  RH  046%=      5-min Rain = 0
KFR1 150528Z 19023KT 27/15 A2972 RMK A01 T02720148  RH  047%=      5-min Rain = 0
KFR1 150529Z 19021G26KT 27/15 A2972 RMK A01 T02710149  RH  047%=      5-min Rain = 0
KFR1 150530Z 19023G29KT 27/15 A2972 RMK A01 T02710150  RH  047%=      5-min Rain = 0
KFR1 150531Z 19023G28KT 27/15 A2971 RMK A01 T02710150  RH  048%=      5-min Rain = 0
KFR1 150532Z 19026KT 27/15 A2971 RMK A01 T02710151  RH  048%=      5-min Rain = 0
KFR1 150533Z 19026G31KT 27/15 A2971 RMK A01 T02720152  RH  048%=      5-min Rain = 0
KFR1 150534Z 19024G29KT 27/15 A2972 RMK A01 T02720154  RH  048%=      5-min Rain = 0
KFR1 150535Z 20020G26KT 27/16 A2972 RMK A01 T02720155  RH  049%=      5-min Rain = 0
KFR1 150536Z 19026G31KT 27/16 A2972 RMK A01 T02720156  RH  049%=      5-min Rain = 0
KFR1 150537Z 19023G29KT 27/16 A2971 RMK A01 T02720157  RH  049%=      5-min Rain = 0
KFR1 150538Z 19023G31KT 27/16 A2972 RMK A01 T02720157  RH  050%=      5-min Rain = 0
KFR1 150539Z 20023G29KT 27/16 A2972 RMK A01 T02720159  RH  050%=      5-min Rain = 0
KFR1 150540Z 20028KT 27/16 A2971 RMK A01 T02710160  RH  051%=      5-min Rain = 0
KFR1 150541Z 20023KT 27/16 A2972 RMK A01 T02720161  RH  051%=      5-min Rain = 0
KFR1 150542Z 20024KT 27/16 A2972 RMK A01 T02720161  RH  051%=      5-min Rain = 0
KFR1 150543Z 20020G25KT 27/16 A2972 RMK A01 T02710163  RH  051%=      5-min Rain = 0
KFR1 150544Z 20027G33KT 27/16 A2972 RMK A01 T02710163  RH  052%=      5-min Rain = 0
KFR1 150545Z 20023G32KT 27/16 A2972 RMK A01 T02710164  RH  052%=      5-min Rain = 0
KFR1 150546Z 20023G31KT 27/17 A2972 RMK A01 T02710165  RH  052%=      5-min Rain = 0
KFR1 150547Z 20024G33KT 27/17 A2972 RMK A01 T02710165  RH  052%=      5-min Rain = 0
KFR1 150548Z 20021G29KT 27/17 A2972 RMK A01 T02710166  RH  052%=      5-min Rain = 0
KFR1 150549Z 20021G26KT 27/17 A2972 RMK A01 T02710166  RH  053%=      5-min Rain = 0
KFR1 150550Z 20022G31KT 27/17 A2972 RMK A01 T02700166  RH  053%=      5-min Rain = 0
KFR1 150551Z 20023G31KT 27/17 A2972 RMK A01 T02700167  RH  053%=      5-min Rain = 0
KFR1 150552Z 20022G30KT 27/17 A2972 RMK A01 T02700167  RH  053%=      5-min Rain = 0
KFR1 150553Z 20021G28KT 27/17 A2972 RMK A01 T02700167  RH  053%=      5-min Rain = 0
KFR1 150554Z 20021G29KT 27/17 A2972 RMK A01 T02690167  RH  054%=      5-min Rain = 0
KFR1 150555Z 20023KT 27/17 A2972 RMK A01 T02690168  RH  054%=      5-min Rain = 0
KFR1 150556Z 20020G26KT 27/17 A2972 RMK A01 T02690168  RH  054%=      5-min Rain = 0
KFR1 150557Z 20023KT 27/17 A2972 RMK A01 T02680168  RH  054%=      5-min Rain = 0
KFR1 150558Z 20022G29KT 27/17 A2972 RMK A01 T02680168  RH  054%=      5-min Rain = 0
KFR1 150559Z 20022G31KT 27/17 A2972 RMK A01 T02680168  RH  054%=      5-min Rain = 0
KFR1 150600Z 20019KT 27/17 A2973 RMK A01 T02680168  RH  054%=      5-min Rain = 0
KFR1 150601Z 20018G23KT 27/17 A2973 RMK A01 T02670169  RH  055%=      5-min Rain = 0
KFR1 150602Z 20017G24KT 27/17 A2973 RMK A01 T02660169  RH  055%=      5-min Rain = 0
KFR1 150603Z 20017G24KT 27/17 A2973 RMK A01 T02650169  RH  055%=      5-min Rain = 0
KFR1 150604Z 20020KT 26/17 A2973 RMK A01 T02640169  RH  056%=      5-min Rain = 0
KFR1 150605Z 20016G22KT 26/17 A2973 RMK A01 T02640169  RH  056%=      5-min Rain = 0
KFR1 150606Z 21017KT 27/17 A2974 RMK A01 T02650170  RH  056%=      5-min Rain = 0
KFR1 150607Z 21021G28KT 26/17 A2973 RMK A01 T02640169  RH  056%=      5-min Rain = 0
KFR1 150608Z 21019G24KT 26/17 A2973 RMK A01 T02640169  RH  056%=      5-min Rain = 0
KFR1 150609Z 21017G24KT 26/17 A2974 RMK A01 T02640169  RH  056%=      5-min Rain = 0
KFR1 150610Z 21019KT 26/17 A2973 RMK A01 T02640170  RH  056%=      5-min Rain = 0
KFR1 150611Z 21017KT 26/17 A2974 RMK A01 T02630170  RH  056%=      5-min Rain = 0
KFR1 150612Z 21020KT 26/17 A2973 RMK A01 T02630170  RH  057%=      5-min Rain = 0
KFR1 150613Z 22019G24KT 26/17 A2974 RMK A01 T02630170  RH  057%=      5-min Rain = 0
KFR1 150614Z 22018G23KT 26/17 A2974 RMK A01 T02620170  RH  057%=      5-min Rain = 0
KFR1 150615Z 22018KT 26/17 A2974 RMK A01 T02620171  RH  057%=      5-min Rain = 0
KFR1 150616Z 22017KT 26/17 A2974 RMK A01 T02620171  RH  057%=      5-min Rain = 0
KFR1 150617Z 22017KT 26/17 A2974 RMK A01 T02610171  RH  057%=      5-min Rain = 0
KFR1 150618Z 22020G25KT 26/17 A2974 RMK A01 T02610171  RH  058%=      5-min Rain = 0
KFR1 150619Z 22017KT 26/17 A2974 RMK A01 T02610171  RH  058%=      5-min Rain = 0
KFR1 150620Z 22019KT 26/17 A2974 RMK A01 T02610171  RH  058%=      5-min Rain = 0
KFR1 150621Z 23017G22KT 26/17 A2975 RMK A01 T02610171  RH  058%=      5-min Rain = 0
KFR1 150622Z 22015G21KT 26/17 A2975 RMK A01 T02600172  RH  058%=      5-min Rain = 0
KFR1 150623Z 22018KT 26/17 A2975 RMK A01 T02590171  RH  058%=      5-min Rain = 0
KFR1 150624Z 21016G21KT 26/17 A2975 RMK A01 T02590171  RH  058%=      5-min Rain = 0
KFR1 150625Z 21017KT 26/17 A2974 RMK A01 T02590171  RH  058%=      5-min Rain = 0
KFR1 150626Z 21017KT 26/17 A2974 RMK A01 T02590172  RH  059%=      5-min Rain = 0
KFR1 150627Z 21017KT 26/17 A2974 RMK A01 T02580172  RH  059%=      5-min Rain = 0
KFR1 150628Z 21018KT 26/17 A2974 RMK A01 T02570172  RH  059%=      5-min Rain = 0
KFR1 150629Z 21019KT 26/17 A2974 RMK A01 T02570172  RH  059%=      5-min Rain = 0
KFR1 150630Z 21017KT 26/17 A2974 RMK A01 T02570171  RH  059%=      5-min Rain = 0
KFR1 150631Z 21017G22KT 26/17 A2974 RMK A01 T02580172  RH  059%=      5-min Rain = 0
KFR1 150632Z 21017KT 26/17 A2974 RMK A01 T02580172  RH  059%=      5-min Rain = 0
KFR1 150633Z 21016KT 26/17 A2974 RMK A01 T02570172  RH  059%=      5-min Rain = 0
KFR1 150634Z 21017KT 26/17 A2974 RMK A01 T02570172  RH  060%=      5-min Rain = 0
KFR1 150635Z 21018KT 26/17 A2974 RMK A01 T02560172  RH  060%=      5-min Rain = 0
KFR1 150636Z 21016KT 26/17 A2974 RMK A01 T02560172  RH  060%=      5-min Rain = 0
KFR1 150637Z 21017KT 26/17 A2974 RMK A01 T02560172  RH  060%=      5-min Rain = 0
KFR1 150638Z 22017KT 26/17 A2974 RMK A01 T02560172  RH  060%=      5-min Rain = 0
KFR1 150639Z 22013KT 26/17 A2974 RMK A01 T02560172  RH  060%=      5-min Rain = 0
KFR1 150640Z 22014KT 26/17 A2974 RMK A01 T02550172  RH  060%=      5-min Rain = 0
KFR1 150641Z 23013KT 25/17 A2975 RMK A01 T02540172  RH  060%=      5-min Rain = 0
KFR1 150642Z 23015KT 25/17 A2975 RMK A01 T02540172  RH  060%=      5-min Rain = 0
KFR1 150643Z 23014KT 25/17 A2975 RMK A01 T02530172  RH  061%=      5-min Rain = 0
KFR1 150644Z 23012KT 25/17 A2975 RMK A01 T02530172  RH  061%=      5-min Rain = 0
KFR1 150645Z 23013KT 25/17 A2975 RMK A01 T02520171  RH  061%=      5-min Rain = 0
KFR1 150646Z 23012KT 25/17 A2975 RMK A01 T02520171  RH  061%=      5-min Rain = 0
KFR1 150647Z 22011KT 25/17 A2975 RMK A01 T02520171  RH  061%=      5-min Rain = 0
KFR1 150648Z 22011KT 25/17 A2975 RMK A01 T02510171  RH  061%=      5-min Rain = 0
KFR1 150649Z 23011KT 25/17 A2975 RMK A01 T02510171  RH  061%=      5-min Rain = 0
KFR1 150650Z 23012KT 25/17 A2975 RMK A01 T02490170  RH  062%=      5-min Rain = 0
KFR1 150651Z 22012KT 25/17 A2975 RMK A01 T02480168  RH  061%=      5-min Rain = 0
KFR1 150652Z 22014KT 25/17 A2974 RMK A01 T02480168  RH  061%=      5-min Rain = 0
KFR1 150653Z 22014KT 25/17 A2974 RMK A01 T02480167  RH  061%=      5-min Rain = 0
KFR1 150654Z 21013KT 25/17 A2974 RMK A01 T02510168  RH  060%=      5-min Rain = 0
KFR1 150655Z 21013KT 25/17 A2974 RMK A01 T02510168  RH  060%=      5-min Rain = 0
KFR1 150656Z 22015KT 25/17 A2974 RMK A01 T02500167  RH  060%=      5-min Rain = 0
KFR1 150657Z 21015KT 25/17 A2974 RMK A01 T02500166  RH  060%=      5-min Rain = 0
KFR1 150658Z 22014KT 25/17 A2974 RMK A01 T02510166  RH  059%=      5-min Rain = 0
KFR1 150659Z 22015G20KT 25/17 A2974 RMK A01 T02510167  RH  060%=      5-min Rain = 0
KFR1 150700Z 21015KT 25/17 A2974 RMK A01 T02510167  RH  060%=      5-min Rain = 0
KFR1 150701Z 21014G19KT 25/17 A2974 RMK A01 T02500167  RH  060%=      5-min Rain = 0
KFR1 150702Z 21014KT 25/17 A2974 RMK A01 T02490167  RH  060%=      5-min Rain = 0
KFR1 150703Z 22015KT 25/17 A2974 RMK A01 T02490166  RH  060%=      5-min Rain = 0
KFR1 150704Z 22014KT 25/17 A2974 RMK A01 T02490167  RH  060%=      5-min Rain = 0
KFR1 150705Z 22013KT 25/17 A2974 RMK A01 T02490166  RH  060%=      5-min Rain = 0
KFR1 150706Z 22012KT 25/17 A2974 RMK A01 T02480167  RH  060%=      5-min Rain = 0
KFR1 150707Z 22013KT 25/17 A2974 RMK A01 T02470166  RH  061%=      5-min Rain = 0
KFR1 150708Z 22012KT 25/17 A2974 RMK A01 T02460166  RH  061%=      5-min Rain = 0
KFR1 150709Z 22012KT 25/17 A2974 RMK A01 T02460166  RH  061%=      5-min Rain = 0
KFR1 150710Z 22013KT 24/17 A2974 RMK A01 T02440166  RH  061%=      5-min Rain = 0
KFR1 150711Z 22014KT 24/17 A2974 RMK A01 T02440165  RH  061%=      5-min Rain = 0
KFR1 150712Z 22014KT 24/16 A2974 RMK A01 T02440164  RH  061%=      5-min Rain = 0
KFR1 150713Z 22013KT 24/16 A2974 RMK A01 T02430163  RH  061%=      5-min Rain = 0
KFR1 150714Z 22012KT 24/16 A2974 RMK A01 T02420163  RH  061%=      5-min Rain = 0
KFR1 150715Z 23014KT 24/16 A2974 RMK A01 T02410162  RH  061%=      5-min Rain = 0
KFR1 150716Z 22014KT 24/16 A2974 RMK A01 T02410160  RH  060%=      5-min Rain = 0
KFR1 150717Z 22014KT 24/16 A2974 RMK A01 T02420159  RH  060%=      5-min Rain = 0
KFR1 150718Z 23013KT 24/16 A2974 RMK A01 T02420160  RH  060%=      5-min Rain = 0
KFR1 150719Z 22013KT 24/16 A2974 RMK A01 T02420159  RH  060%=      5-min Rain = 0
KFR1 150720Z 23012KT 24/16 A2974 RMK A01 T02410159  RH  060%=      5-min Rain = 0
KFR1 150721Z 23013KT 24/16 A2974 RMK A01 T02400159  RH  060%=      5-min Rain = 0
KFR1 150722Z 23014KT 24/16 A2974 RMK A01 T02400158  RH  060%=      5-min Rain = 0
KFR1 150723Z 23012KT 24/16 A2975 RMK A01 T02400157  RH  060%=      5-min Rain = 0
KFR1 150724Z 23013KT 24/16 A2975 RMK A01 T02410158  RH  060%=      5-min Rain = 0
KFR1 150725Z 23016KT 24/16 A2975 RMK A01 T02400157  RH  060%=      5-min Rain = 0
KFR1 150726Z 23014KT 24/16 A2975 RMK A01 T02410157  RH  059%=      5-min Rain = 0
KFR1 150727Z 23014KT 24/16 A2975 RMK A01 T02410157  RH  060%=      5-min Rain = 0
KFR1 150728Z 23014KT 24/16 A2975 RMK A01 T02400157  RH  060%=      5-min Rain = 0
KFR1 150729Z 23015KT 24/16 A2975 RMK A01 T02390157  RH  060%=      5-min Rain = 0
KFR1 150730Z 22013KT 24/16 A2975 RMK A01 T02380156  RH  060%=      5-min Rain = 0
KFR1 150731Z 22016KT 24/16 A2975 RMK A01 T02380156  RH  060%=      5-min Rain = 0
KFR1 150732Z 22016KT 24/16 A2975 RMK A01 T02370156  RH  060%=      5-min Rain = 0
KFR1 150733Z 22015G20KT 24/16 A2974 RMK A01 T02370156  RH  060%=      5-min Rain = 0
KFR1 150734Z 22016KT 24/16 A2974 RMK A01 T02370157  RH  061%=      5-min Rain = 0
KFR1 150735Z 22018KT 24/16 A2974 RMK A01 T02370157  RH  061%=      5-min Rain = 0
KFR1 150736Z 21018KT 24/16 A2974 RMK A01 T02390158  RH  061%=      5-min Rain = 0
KFR1 150737Z 21020KT 24/16 A2974 RMK A01 T02390158  RH  060%=      5-min Rain = 0
KFR1 150738Z 21020KT 24/16 A2974 RMK A01 T02410159  RH  060%=      5-min Rain = 0
KFR1 150739Z 21019KT 24/16 A2974 RMK A01 T02410159  RH  060%=      5-min Rain = 0
KFR1 150740Z 22020KT 24/16 A2974 RMK A01 T02420159  RH  060%=      5-min Rain = 0
KFR1 150741Z 21020KT 24/16 A2974 RMK A01 T02420159  RH  060%=      5-min Rain = 0
KFR1 150742Z 21020G25KT 24/16 A2974 RMK A01 T02430159  RH  059%=      5-min Rain = 0
KFR1 150743Z 21021KT 24/16 A2973 RMK A01 T02430158  RH  059%=      5-min Rain = 0
KFR1 150744Z 21019KT 25/16 A2973 RMK A01 T02450157  RH  058%=      5-min Rain = 0
KFR1 150745Z 21021G26KT 25/16 A2973 RMK A01 T02450158  RH  058%=      5-min Rain = 0
KFR1 150746Z 21023G29KT 25/16 A2973 RMK A01 T02450157  RH  058%=      5-min Rain = 0
KFR1 150747Z 21022KT 25/16 A2973 RMK A01 T02460157  RH  057%=      5-min Rain = 0
KFR1 150748Z 21020G25KT 25/16 A2973 RMK A01 T02470157  RH  057%=      5-min Rain = 0
KFR1 150749Z 21021KT 25/16 A2973 RMK A01 T02460157  RH  058%=      5-min Rain = 0
KFR1 150750Z 21023G29KT 25/16 A2972 RMK A01 T02450157  RH  058%=      5-min Rain = 0
KFR1 150751Z 21024G29KT 25/16 A2972 RMK A01 T02450156  RH  057%=      5-min Rain = 0
KFR1 150752Z 21022G28KT 25/16 A2972 RMK A01 T02460156  RH  057%=      5-min Rain = 0
KFR1 150753Z 21022KT 25/16 A2972 RMK A01 T02460156  RH  057%=      5-min Rain = 0
KFR1 150754Z 21020KT 25/16 A2972 RMK A01 T02450156  RH  057%=      5-min Rain = 0
KFR1 150755Z 20020KT 25/16 A2972 RMK A01 T02450157  RH  058%=      5-min Rain = 0
KFR1 150756Z 20019G24KT 24/16 A2972 RMK A01 T02440157  RH  058%=      5-min Rain = 0
KFR1 150757Z 21022G27KT 24/16 A2972 RMK A01 T02440157  RH  058%=      5-min Rain = 0
KFR1 150758Z 21022KT 24/16 A2972 RMK A01 T02440157  RH  058%=      5-min Rain = 0
KFR1 150759Z 20020G27KT 25/16 A2972 RMK A01 T02450157  RH  058%=      5-min Rain = 0
KFR1 150800Z 20020KT 25/16 A2972 RMK A01 T02450157  RH  058%=      5-min Rain = 0
KFR1 150801Z 21021G27KT 24/16 A2972 RMK A01 T02440157  RH  058%=      5-min Rain = 0
KFR1 150802Z 21022KT 24/16 A2972 RMK A01 T02430157  RH  059%=      5-min Rain = 0
KFR1 150803Z 21019KT 24/16 A2972 RMK A01 T02430158  RH  059%=      5-min Rain = 0
KFR1 150804Z 21020KT 24/16 A2973 RMK A01 T02430158  RH  059%=      5-min Rain = 0
KFR1 150805Z 21019KT 24/16 A2973 RMK A01 T02430159  RH  059%=      5-min Rain = 0
KFR1 150806Z 21019G24KT 24/16 A2973 RMK A01 T02420158  RH  059%=      5-min Rain = 0
KFR1 150807Z 21019KT 24/16 A2973 RMK A01 T02420158  RH  059%=      5-min Rain = 0
KFR1 150808Z 21019KT 24/16 A2973 RMK A01 T02420158  RH  059%=      5-min Rain = 0
KFR1 150809Z 21019KT 24/16 A2973 RMK A01 T02420158  RH  059%=      5-min Rain = 0
KFR1 150810Z 21019KT 24/16 A2973 RMK A01 T02410157  RH  059%=      5-min Rain = 0
KFR1 150811Z 21017KT 24/16 A2973 RMK A01 T02410157  RH  060%=      5-min Rain = 0
KFR1 150812Z 21018KT 24/16 A2973 RMK A01 T02400157  RH  060%=      5-min Rain = 0
KFR1 150813Z 21018KT 24/16 A2973 RMK A01 T02390157  RH  060%=      5-min Rain = 0
KFR1 150814Z 21018KT 24/16 A2973 RMK A01 T02390157  RH  060%=      5-min Rain = 0
KFR1 150815Z 21018KT 24/16 A2973 RMK A01 T02390157  RH  060%=      5-min Rain = 0
KFR1 150816Z 21018KT 24/16 A2973 RMK A01 T02390157  RH  060%=      5-min Rain = 0
KFR1 150817Z 21017KT 24/16 A2973 RMK A01 T02380157  RH  060%=      5-min Rain = 0
KFR1 150818Z 21017KT 24/16 A2973 RMK A01 T02380157  RH  060%=      5-min Rain = 0
KFR1 150819Z 21019KT 24/16 A2973 RMK A01 T02380157  RH  061%=      5-min Rain = 0
KFR1 150820Z 21017KT 24/16 A2973 RMK A01 T02370157  RH  061%=      5-min Rain = 0
KFR1 150821Z 21017KT 24/16 A2973 RMK A01 T02370157  RH  061%=      5-min Rain = 0
KFR1 150822Z 21015G20KT 24/16 A2973 RMK A01 T02360156  RH  061%=      5-min Rain = 0
KFR1 150823Z 21017KT 24/16 A2974 RMK A01 T02360156  RH  061%=      5-min Rain = 0
KFR1 150824Z 21017KT 24/16 A2974 RMK A01 T02350156  RH  061%=      5-min Rain = 0
KFR1 150825Z 22015KT 24/16 A2973 RMK A01 T02350155  RH  061%=      5-min Rain = 0
KFR1 150826Z 22016KT 23/15 A2974 RMK A01 T02340154  RH  061%=      5-min Rain = 0
KFR1 150827Z 21016KT 23/15 A2974 RMK A01 T02340153  RH  060%=      5-min Rain = 0
KFR1 150828Z 22015KT 23/15 A2974 RMK A01 T02340152  RH  060%=      5-min Rain = 0
KFR1 150829Z 22015KT 23/15 A2974 RMK A01 T02340152  RH  060%=      5-min Rain = 0
KFR1 150830Z 22014KT 23/15 A2974 RMK A01 T02340151  RH  060%=      5-min Rain = 0
KFR1 150831Z 22015KT 23/15 A2974 RMK A01 T02340151  RH  060%=      5-min Rain = 0
KFR1 150832Z 21016KT 23/15 A2974 RMK A01 T02330150  RH  060%=      5-min Rain = 0
KFR1 150833Z 22015KT 23/15 A2974 RMK A01 T02340150  RH  059%=      5-min Rain = 0
KFR1 150834Z 22017KT 23/15 A2974 RMK A01 T02340150  RH  059%=      5-min Rain = 0
KFR1 150835Z 22016G21KT 23/15 A2973 RMK A01 T02340150  RH  059%=      5-min Rain = 0
KFR1 150836Z 22018KT 23/15 A2973 RMK A01 T02340150  RH  059%=      5-min Rain = 0
KFR1 150837Z 22017KT 24/15 A2973 RMK A01 T02350151  RH  059%=      5-min Rain = 0
KFR1 150838Z 22015KT 24/15 A2973 RMK A01 T02350151  RH  059%=      5-min Rain = 0
KFR1 150839Z 21016KT 23/15 A2973 RMK A01 T02330151  RH  060%=      5-min Rain = 0
KFR1 150840Z 22017G22KT 23/15 A2973 RMK A01 T02330152  RH  060%=      5-min Rain = 0
KFR1 150841Z 22015KT 23/15 A2973 RMK A01 T02330152  RH  060%=      5-min Rain = 0
KFR1 150842Z 22016KT 23/15 A2973 RMK A01 T02330152  RH  061%=      5-min Rain = 0
KFR1 150843Z 22018KT 23/15 A2973 RMK A01 T02320153  RH  061%=      5-min Rain = 0
KFR1 150844Z 22019KT 23/15 A2973 RMK A01 T02330154  RH  061%=      5-min Rain = 0
KFR1 150845Z 22015KT 23/15 A2973 RMK A01 T02340154  RH  061%=      5-min Rain = 0
KFR1 150846Z 22016KT 23/16 A2973 RMK A01 T02330155  RH  061%=      5-min Rain = 0
KFR1 150847Z 21015KT 23/16 A2973 RMK A01 T02320155  RH  062%=      5-min Rain = 0
KFR1 150848Z 22016KT 23/16 A2973 RMK A01 T02310155  RH  062%=      5-min Rain = 0
KFR1 150849Z 22015KT 23/16 A2973 RMK A01 T02310156  RH  063%=      5-min Rain = 0
KFR1 150850Z 22014KT 23/16 A2973 RMK A01 T02310157  RH  063%=      5-min Rain = 0
KFR1 150851Z 22014KT 23/16 A2973 RMK A01 T02290157  RH  064%=      5-min Rain = 0
KFR1 150852Z 22014G20KT 23/16 A2973 RMK A01 T02290157  RH  064%=      5-min Rain = 0
KFR1 150853Z 23012KT 23/16 A2974 RMK A01 T02290157  RH  064%=      5-min Rain = 0
KFR1 150854Z 23012KT 23/16 A2974 RMK A01 T02280157  RH  064%=      5-min Rain = 0
KFR1 150855Z 23011KT 23/16 A2974 RMK A01 T02270157  RH  065%=      5-min Rain = 0
KFR1 150856Z 24011KT 23/16 A2974 RMK A01 T02260157  RH  065%=      5-min Rain = 0
KFR1 150857Z 23012KT 23/16 A2974 RMK A01 T02250157  RH  066%=      5-min Rain = 0
KFR1 150858Z 24013KT 22/16 A2974 RMK A01 T02240157  RH  066%=      5-min Rain = 0
KFR1 150859Z 24012KT 22/16 A2974 RMK A01 T02240157  RH  066%=      5-min Rain = 0
KFR1 150900Z 24011KT 22/16 A2974 RMK A01 T02240157  RH  066%=      5-min Rain = 0
KFR1 150901Z 25011KT 22/16 A2974 RMK A01 T02230156  RH  066%=      5-min Rain = 0
KFR1 150902Z 25012KT 22/16 A2974 RMK A01 T02230156  RH  066%=      5-min Rain = 0
KFR1 150903Z 24010KT 22/16 A2974 RMK A01 T02230156  RH  066%=      5-min Rain = 0
KFR1 150904Z 24013KT 22/16 A2974 RMK A01 T02230155  RH  065%=      5-min Rain = 0
KFR1 150905Z 24010KT 22/15 A2974 RMK A01 T02220154  RH  065%=      5-min Rain = 0
KFR1 150906Z 24012KT 22/16 A2974 RMK A01 T02220155  RH  066%=      5-min Rain = 0
KFR1 150907Z 24013KT 22/15 A2974 RMK A01 T02210154  RH  066%=      5-min Rain = 0
KFR1 150908Z 24013KT 22/15 A2974 RMK A01 T02210153  RH  065%=      5-min Rain = 0
KFR1 150909Z 24012KT 22/15 A2974 RMK A01 T02210153  RH  065%=      5-min Rain = 0
KFR1 150910Z 24012KT 22/15 A2974 RMK A01 T02210153  RH  065%=      5-min Rain = 0
KFR1 150911Z 24013KT 22/15 A2974 RMK A01 T02200152  RH  065%=      5-min Rain = 0
KFR1 150912Z 24010KT 22/15 A2975 RMK A01 T02200152  RH  065%=      5-min Rain = 0
KFR1 150913Z 25011KT 22/15 A2975 RMK A01 T02190151  RH  065%=      5-min Rain = 0
KFR1 150914Z 25012KT 22/15 A2975 RMK A01 T02180151  RH  065%=      5-min Rain = 0
KFR1 150915Z 26012KT 22/15 A2975 RMK A01 T02180150  RH  065%=      5-min Rain = 0
KFR1 150916Z 26011KT 22/15 A2976 RMK A01 T02170149  RH  065%=      5-min Rain = 0
KFR1 150917Z 26011KT 22/15 A2976 RMK A01 T02180148  RH  065%=      5-min Rain = 0
KFR1 150918Z 25010KT 22/15 A2976 RMK A01 T02180148  RH  065%=      5-min Rain = 0
KFR1 150919Z 24011KT 22/15 A2975 RMK A01 T02170148  RH  065%=      5-min Rain = 0
KFR1 150920Z 24012KT 22/15 A2975 RMK A01 T02160147  RH  064%=      5-min Rain = 0
KFR1 150921Z 24013KT 22/15 A2975 RMK A01 T02170145  RH  063%=      5-min Rain = 0
KFR1 150922Z 24010KT 22/14 A2975 RMK A01 T02180144  RH  063%=      5-min Rain = 0
KFR1 150923Z 24011KT 22/14 A2975 RMK A01 T02170143  RH  063%=      5-min Rain = 0
KFR1 150924Z 24011KT 22/14 A2975 RMK A01 T02180143  RH  063%=      5-min Rain = 0
KFR1 150925Z 25009KT 22/14 A2975 RMK A01 T02180142  RH  062%=      5-min Rain = 0
KFR1 150926Z 24010KT 22/14 A2976 RMK A01 T02160142  RH  063%=      5-min Rain = 0
KFR1 150927Z 24010KT 22/14 A2976 RMK A01 T02150141  RH  063%=      5-min Rain = 0
KFR1 150928Z 25010KT 22/14 A2976 RMK A01 T02150137  RH  061%=      5-min Rain = 0
KFR1 150929Z 25009KT 22/14 A2976 RMK A01 T02150137  RH  061%=      5-min Rain = 0
KFR1 150930Z 25010KT 22/14 A2976 RMK A01 T02150136  RH  061%=      5-min Rain = 0
KFR1 150931Z 24012KT 21/13 A2975 RMK A01 T02140131  RH  059%=      5-min Rain = 0
KFR1 150932Z 24010KT 22/13 A2975 RMK A01 T02150127  RH  057%=      5-min Rain = 0
KFR1 150933Z 25011KT 22/13 A2976 RMK A01 T02160126  RH  057%=      5-min Rain = 0
KFR1 150934Z 25010KT 22/12 A2976 RMK A01 T02160123  RH  055%=      5-min Rain = 0
KFR1 150935Z 26008KT 22/12 A2976 RMK A01 T02160124  RH  056%=      5-min Rain = 0
KFR1 150936Z 27006G13KT 22/13 A2976 RMK A01 T02160125  RH  056%=      5-min Rain = 0
KFR1 150937Z 28010G15KT 21/12 A2976 RMK A01 T02140124  RH  057%=      5-min Rain = 0
KFR1 150938Z 29008KT 21/11 A2976 RMK A01 T02090111  RH  053%=      5-min Rain = 0
KFR1 150939Z 29009KT 21/10 A2976 RMK A01 T02050103  RH  052%=      5-min Rain = 0
KFR1 150940Z 30009KT 20/10 A2977 RMK A01 T02020103  RH  053%=      5-min Rain = 0
KFR1 150941Z 30010KT 20/10 A2977 RMK A01 T01990104  RH  054%=      5-min Rain = 0
KFR1 150942Z 29010KT 20/11 A2977 RMK A01 T01970106  RH  055%=      5-min Rain = 0
KFR1 150943Z 28007KT 20/11 A2977 RMK A01 T01960108  RH  057%=      5-min Rain = 0
KFR1 150944Z 26007KT 20/11 A2977 RMK A01 T01950109  RH  058%=      5-min Rain = 0
KFR1 150945Z 26007KT 19/11 A2977 RMK A01 T01940110  RH  058%=      5-min Rain = 0
KFR1 150946Z 27007KT 19/11 A2977 RMK A01 T01920109  RH  058%=      5-min Rain = 0
KFR1 150947Z 28005KT 19/11 A2977 RMK A01 T01920111  RH  059%=      5-min Rain = 0
KFR1 150948Z 26006KT 19/11 A2977 RMK A01 T01910113  RH  061%=      5-min Rain = 0
KFR1 150949Z 27006KT 19/12 A2977 RMK A01 T01910115  RH  061%=      5-min Rain = 0
KFR1 150950Z 29007KT 19/12 A2978 RMK A01 T01900116  RH  062%=      5-min Rain = 0
KFR1 150951Z 29007KT 19/12 A2978 RMK A01 T01890117  RH  063%=      5-min Rain = 0
KFR1 150952Z 29008KT 19/12 A2978 RMK A01 T01890116  RH  062%=      5-min Rain = 0
KFR1 150953Z 29006KT 19/12 A2978 RMK A01 T01880115  RH  063%=      5-min Rain = 0
KFR1 150954Z 29005KT 19/12 A2978 RMK A01 T01870116  RH  064%=      5-min Rain = 0
KFR1 150955Z 27005KT 19/12 A2978 RMK A01 T01850117  RH  064%=      5-min Rain = 0
KFR1 150956Z 28006KT 18/12 A2978 RMK A01 T01840117  RH  065%=      5-min Rain = 0
KFR1 150957Z 28006KT 18/12 A2978 RMK A01 T01820117  RH  066%=      5-min Rain = 0
KFR1 150958Z 28004KT 18/12 A2978 RMK A01 T01810118  RH  067%=      5-min Rain = 0
KFR1 150959Z 27005KT 18/12 A2978 RMK A01 T01800120  RH  068%=      5-min Rain = 0
KFR1 151000Z 27006KT 18/12 A2978 RMK A01 T01790121  RH  069%=      5-min Rain = 0
KFR1 151001Z 28006KT 18/12 A2978 RMK A01 T01780123  RH  070%=      5-min Rain = 0
KFR1 151002Z 28007KT 18/13 A2978 RMK A01 T01770125  RH  072%=      5-min Rain = 0
KFR1 151003Z 28007KT 18/13 A2978 RMK A01 T01760127  RH  073%=      5-min Rain = 0
KFR1 151004Z 28006KT 18/13 A2978 RMK A01 T01750128  RH  074%=      5-min Rain = 0
KFR1 151005Z 28006KT 17/13 A2978 RMK A01 T01740128  RH  074%=      5-min Rain = 0
KFR1 151006Z 28006KT 17/13 A2978 RMK A01 T01730130  RH  076%=      5-min Rain = 0
KFR1 151007Z 27005KT 17/13 A2978 RMK A01 T01720129  RH  076%=      5-min Rain = 0
KFR1 151008Z 26005KT 17/13 A2979 RMK A01 T01710129  RH  076%=      5-min Rain = 0
KFR1 151009Z 28006KT 17/13 A2979 RMK A01 T01700129  RH  077%=      5-min Rain = 0
KFR1 151010Z 27006KT 17/13 A2979 RMK A01 T01700130  RH  077%=      5-min Rain = 0
KFR1 151011Z 26006KT 17/13 A2979 RMK A01 T01700130  RH  077%=      5-min Rain = 0
KFR1 151012Z 26006KT 17/13 A2979 RMK A01 T01690130  RH  078%=      5-min Rain = 0
KFR1 151013Z 26006KT 17/13 A2979 RMK A01 T01690130  RH  078%=      5-min Rain = 0
KFR1 151014Z 26006KT 17/13 A2979 RMK A01 T01680130  RH  078%=      5-min Rain = 0
KFR1 151015Z 27006KT 17/13 A2979 RMK A01 T01670131  RH  079%=      5-min Rain = 0
KFR1 151016Z 27005KT 17/13 A2979 RMK A01 T01670132  RH  080%=      5-min Rain = 0
KFR1 151017Z 26006KT 17/13 A2979 RMK A01 T01660132  RH  080%=      5-min Rain = 0
KFR1 151018Z 27006KT 17/13 A2979 RMK A01 T01660134  RH  081%=      5-min Rain = 0
KFR1 151019Z 28006KT 17/14 A2979 RMK A01 T01650135  RH  083%=      5-min Rain = 0
KFR1 151020Z 26004KT 17/14 A2979 RMK A01 T01650137  RH  084%=      5-min Rain = 0
KFR1 151021Z 27004KT 16/14 A2979 RMK A01 T01640137  RH  084%=      5-min Rain = 0
KFR1 151022Z 27004KT 16/14 A2979 RMK A01 T01640137  RH  084%=      5-min Rain = 0
KFR1 151023Z 26004KT 16/14 A2979 RMK A01 T01640138  RH  085%=      5-min Rain = 0
KFR1 151024Z 27005KT 16/14 A2979 RMK A01 T01640138  RH  085%=      5-min Rain = 0
KFR1 151025Z 27004KT 16/14 A2979 RMK A01 T01640138  RH  085%=      5-min Rain = 0
KFR1 151026Z 27005KT 16/14 A2979 RMK A01 T01640139  RH  085%=      5-min Rain = 0
KFR1 151027Z 26005KT 16/14 A2979 RMK A01 T01640138  RH  085%=      5-min Rain = 0
KFR1 151028Z 26005KT 17/14 A2979 RMK A01 T01650139  RH  084%=      5-min Rain = 0
KFR1 151029Z 25004KT 16/14 A2979 RMK A01 T01640138  RH  085%=      5-min Rain = 0
KFR1 151030Z 25004KT 16/14 A2979 RMK A01 T01630138  RH  085%=      5-min Rain = 0
KFR1 151031Z 25005KT 16/14 A2979 RMK A01 T01630138  RH  085%=      5-min Rain = 0
KFR1 151032Z 26004KT 16/14 A2979 RMK A01 T01620139  RH  086%=      5-min Rain = 0
KFR1 151033Z 28004KT 16/14 A298 RMK A01 T01620139  RH  086%=      5-min Rain = 0
KFR1 151034Z 26004KT 16/14 A298 RMK A01 T01630139  RH  086%=      5-min Rain = 0
KFR1 151035Z 25004KT 16/14 A298 RMK A01 T01630139  RH  086%=      5-min Rain = 0
KFR1 151036Z 25005KT 16/14 A298 RMK A01 T01620139  RH  086%=      5-min Rain = 0
KFR1 151037Z 25004KT 16/14 A298 RMK A01 T01610139  RH  086%=      5-min Rain = 0
KFR1 151038Z 25004KT 16/14 A298 RMK A01 T01610139  RH  087%=      5-min Rain = 0
KFR1 151039Z 27004KT 16/14 A298 RMK A01 T01600138  RH  087%=      5-min Rain = 0
KFR1 151040Z 27003KT 16/14 A298 RMK A01 T01600139  RH  087%=      5-min Rain = 0
KFR1 151041Z 27005KT 16/14 A298 RMK A01 T01600139  RH  087%=      5-min Rain = 0
KFR1 151042Z 26005KT 16/14 A298 RMK A01 T01610139  RH  087%=      5-min Rain = 0
KFR1 151043Z 26005KT 16/14 A298 RMK A01 T01610139  RH  087%=      5-min Rain = 0
KFR1 151044Z 27006KT 16/14 A298 RMK A01 T01610140  RH  087%=      5-min Rain = 0
KFR1 151045Z 26006KT 16/14 A298 RMK A01 T01610140  RH  088%=      5-min Rain = 0
KFR1 151046Z 26006KT 16/14 A298 RMK A01 T01610140  RH  088%=      5-min Rain = 0
KFR1 151047Z 27006KT 16/14 A298 RMK A01 T01600140  RH  088%=      5-min Rain = 0
KFR1 151048Z 28005KT 16/14 A298 RMK A01 T01600140  RH  088%=      5-min Rain = 0
KFR1 151049Z 26004KT 16/14 A298 RMK A01 T01600141  RH  088%=      5-min Rain = 0
KFR1 151050Z 26004KT 16/14 A298 RMK A01 T01600141  RH  088%=      5-min Rain = 0
KFR1 151051Z 26005KT 16/14 A298 RMK A01 T01600140  RH  088%=      5-min Rain = 0
KFR1 151052Z 24004KT 16/14 A298 RMK A01 T01600141  RH  089%=      5-min Rain = 0
KFR1 151053Z 24004KT 16/14 A298 RMK A01 T01590141  RH  089%=      5-min Rain = 0
KFR1 151054Z 24004KT 16/14 A298 RMK A01 T01590141  RH  089%=      5-min Rain = 0
KFR1 151055Z 24005KT 16/14 A298 RMK A01 T01590141  RH  089%=      5-min Rain = 0
KFR1 151056Z 25005KT 16/14 A298 RMK A01 T01590141  RH  089%=      5-min Rain = 0
KFR1 151057Z 25004KT 16/14 A298 RMK A01 T01590142  RH  090%=      5-min Rain = 0
KFR1 151058Z 26005KT 16/14 A298 RMK A01 T01590141  RH  089%=      5-min Rain = 0
KFR1 151059Z 26004KT 16/14 A298 RMK A01 T01590142  RH  089%=      5-min Rain = 0
KFR1 151100Z 26004KT 16/14 A298 RMK A01 T01600142  RH  089%=      5-min Rain = 0
KFR1 151101Z 27003KT 16/14 A298 RMK A01 T01600142  RH  089%=      5-min Rain = 0
KFR1 151102Z 26005KT 16/14 A298 RMK A01 T01600141  RH  089%=      5-min Rain = 0
KFR1 151103Z 26004KT 16/14 A298 RMK A01 T01600142  RH  089%=      5-min Rain = 0
KFR1 151104Z 26004KT 16/14 A298 RMK A01 T01600142  RH  089%=      5-min Rain = 0
KFR1 151105Z 27004KT 16/14 A298 RMK A01 T01600142  RH  089%=      5-min Rain = 0
KFR1 151106Z 27005KT 16/14 A298 RMK A01 T01600142  RH  089%=      5-min Rain = 0
KFR1 151107Z 27005KT 16/14 A298 RMK A01 T01600142  RH  089%=      5-min Rain = 0
KFR1 151108Z 27006KT 16/14 A298 RMK A01 T01600142  RH  089%=      5-min Rain = 0
KFR1 151109Z 27006KT 16/14 A298 RMK A01 T01600142  RH  089%=      5-min Rain = 0
KFR1 151110Z 26006KT 16/14 A298 RMK A01 T01600142  RH  089%=      5-min Rain = 0
KFR1 151111Z 26007KT 16/14 A298 RMK A01 T01590142  RH  089%=      5-min Rain = 0
KFR1 151112Z 25006KT 16/14 A298 RMK A01 T01590142  RH  089%=      5-min Rain = 0
KFR1 151113Z 25007KT 16/14 A2979 RMK A01 T01590142  RH  089%=      5-min Rain = 0
KFR1 151114Z 25007KT 16/14 A2979 RMK A01 T01580141  RH  090%=      5-min Rain = 0
KFR1 151115Z 25007KT 16/14 A2979 RMK A01 T01580142  RH  090%=      5-min Rain = 0
KFR1 151116Z 25007KT 16/14 A2979 RMK A01 T01580142  RH  090%=      5-min Rain = 0
KFR1 151117Z 26008KT 16/14 A2979 RMK A01 T01580142  RH  090%=      5-min Rain = 0
KFR1 151118Z 26006KT 16/14 A298 RMK A01 T01580142  RH  090%=      5-min Rain = 0
KFR1 151119Z 27006KT 16/14 A298 RMK A01 T01590143  RH  090%=      5-min Rain = 0
KFR1 151120Z 27006KT 16/14 A298 RMK A01 T01590143  RH  090%=      5-min Rain = 0
KFR1 151121Z 27006KT 16/14 A298 RMK A01 T01590143  RH  090%=      5-min Rain = 0
KFR1 151122Z 28005KT 16/14 A298 RMK A01 T01600143  RH  090%=      5-min Rain = 0
KFR1 151123Z 28006KT 16/14 A298 RMK A01 T01600143  RH  090%=      5-min Rain = 0
KFR1 151124Z 28006KT 16/14 A298 RMK A01 T01600143  RH  090%=      5-min Rain = 0
KFR1 151125Z 27005KT 16/14 A298 RMK A01 T01600143  RH  090%=      5-min Rain = 0
KFR1 151126Z 28006KT 16/14 A298 RMK A01 T01600143  RH  090%=      5-min Rain = 0
KFR1 151127Z 28006KT 16/14 A298 RMK A01 T01600143  RH  090%=      5-min Rain = 0
KFR1 151128Z 28005KT 16/14 A298 RMK A01 T01600143  RH  090%=      5-min Rain = 0
KFR1 151129Z 28004KT 16/14 A298 RMK A01 T01600144  RH  090%=      5-min Rain = 0
KFR1 151130Z 27003KT 16/14 A298 RMK A01 T01600144  RH  090%=      5-min Rain = 0
KFR1 151131Z 25003KT 16/14 A298 RMK A01 T01600144  RH  090%=      5-min Rain = 0
KFR1 151132Z 24003KT 16/14 A298 RMK A01 T01590143  RH  090%=      5-min Rain = 0
KFR1 151133Z 23004KT 16/14 A298 RMK A01 T01590143  RH  090%=      5-min Rain = 0
KFR1 151134Z 24004KT 16/14 A298 RMK A01 T01590143  RH  090%=      5-min Rain = 0
KFR1 151135Z 27004KT 16/14 A298 RMK A01 T01600144  RH  090%=      5-min Rain = 0
KFR1 151136Z 26005KT 16/14 A298 RMK A01 T01600143  RH  090%=      5-min Rain = 0
KFR1 151137Z 28005KT 16/14 A298 RMK A01 T01600143  RH  089%=      5-min Rain = 0
KFR1 151138Z 26005KT 16/14 A298 RMK A01 T01610143  RH  089%=      5-min Rain = 0
KFR1 151139Z 25005KT 16/14 A298 RMK A01 T01620143  RH  089%=      5-min Rain = 0
KFR1 151140Z 24004KT 16/14 A298 RMK A01 T01620143  RH  088%=      5-min Rain = 0
KFR1 151141Z 26005KT 16/14 A298 RMK A01 T01620143  RH  088%=      5-min Rain = 0
KFR1 151142Z 27004KT 16/14 A298 RMK A01 T01620143  RH  089%=      5-min Rain = 0
KFR1 151143Z 28005KT 16/14 A298 RMK A01 T01630143  RH  088%=      5-min Rain = 0
KFR1 151144Z 27006KT 16/14 A298 RMK A01 T01630144  RH  088%=      5-min Rain = 0
KFR1 151145Z 27006KT 16/14 A298 RMK A01 T01640143  RH  088%=      5-min Rain = 0
KFR1 151146Z 27007KT 16/14 A298 RMK A01 T01640144  RH  088%=      5-min Rain = 0
KFR1 151147Z 28007KT 16/14 A298 RMK A01 T01640143  RH  087%=      5-min Rain = 0
KFR1 151148Z 29007KT 16/14 A298 RMK A01 T01640144  RH  088%=      5-min Rain = 0
KFR1 151149Z 30006KT 16/14 A298 RMK A01 T01640144  RH  088%=      5-min Rain = 0
KFR1 151150Z 30006KT 16/15 A298 RMK A01 T01640145  RH  088%=      5-min Rain = 0
KFR1 151151Z 27006KT 16/15 A298 RMK A01 T01640145  RH  088%=      5-min Rain = 0
KFR1 151152Z 28006KT 16/14 A2981 RMK A01 T01640144  RH  088%=      5-min Rain = 0
KFR1 151153Z 29006KT 16/14 A2981 RMK A01 T01640144  RH  088%=      5-min Rain = 0
KFR1 151154Z 29005KT 16/14 A2981 RMK A01 T01640143  RH  087%=      5-min Rain = 0
KFR1 151155Z 28006KT 16/14 A2981 RMK A01 T01640143  RH  087%=      5-min Rain = 0
KFR1 151156Z 27004KT 16/14 A2981 RMK A01 T01640144  RH  088%=      5-min Rain = 0
KFR1 151157Z 26006KT 16/14 A2981 RMK A01 T01640144  RH  088%=      5-min Rain = 0
KFR1 151158Z 26006KT 16/14 A2981 RMK A01 T01640144  RH  088%=      5-min Rain = 0
KFR1 151159Z 26006KT 16/14 A2981 RMK A01 T01630143  RH  088%=      5-min Rain = 0
KFR1 151200Z 27004KT 16/14 A2981 RMK A01 T01630143  RH  088%=      5-min Rain = 0
KFR1 151201Z 26004KT 16/14 A2981 RMK A01 T01630143  RH  088%=      5-min Rain = 0
KFR1 151202Z 26005KT 16/14 A2981 RMK A01 T01630143  RH  088%=      5-min Rain = 0
KFR1 151203Z 27004KT 16/14 A2981 RMK A01 T01640143  RH  088%=      5-min Rain = 0
KFR1 151204Z 28004KT 16/14 A2981 RMK A01 T01630143  RH  088%=      5-min Rain = 0
KFR1 151205Z 28004KT 16/14 A2981 RMK A01 T01630143  RH  088%=      5-min Rain = 0
KFR1 151206Z 28003KT 16/14 A2981 RMK A01 T01630143  RH  088%=      5-min Rain = 0
KFR1 151207Z 28003KT 16/14 A2981 RMK A01 T01630143  RH  088%=      5-min Rain = 0
KFR1 151208Z 29005KT 16/14 A2981 RMK A01 T01630143  RH  088%=      5-min Rain = 0
KFR1 151209Z 29004KT 16/14 A2981 RMK A01 T01630143  RH  088%=      5-min Rain = 0
KFR1 151210Z 30005KT 16/14 A2982 RMK A01 T01630143  RH  088%=      5-min Rain = 0
KFR1 151211Z 29005KT 16/14 A2982 RMK A01 T01630143  RH  088%=      5-min Rain = 0
KFR1 151212Z 28004KT 16/14 A2982 RMK A01 T01640143  RH  088%=      5-min Rain = 0
KFR1 151213Z 29003KT 16/14 A2982 RMK A01 T01640144  RH  088%=      5-min Rain = 0
KFR1 151214Z 29004KT 17/14 A2982 RMK A01 T01650144  RH  087%=      5-min Rain = 0
KFR1 151215Z 28003KT 17/14 A2982 RMK A01 T01650144  RH  087%=      5-min Rain = 0
KFR1 151216Z 26003KT 17/14 A2982 RMK A01 T01660144  RH  087%=      5-min Rain = 0
KFR1 151217Z 26004KT 17/14 A2982 RMK A01 T01660144  RH  087%=      5-min Rain = 0
KFR1 151218Z 28005KT 17/14 A2982 RMK A01 T01650144  RH  087%=      5-min Rain = 0
KFR1 151219Z 28003KT 17/14 A2982 RMK A01 T01650144  RH  087%=      5-min Rain = 0
KFR1 151220Z 26005KT 17/14 A2982 RMK A01 T01650144  RH  087%=      5-min Rain = 0
KFR1 151221Z 27004KT 17/14 A2982 RMK A01 T01650143  RH  087%=      5-min Rain = 0
KFR1 151222Z 28005KT 17/14 A2982 RMK A01 T01650144  RH  087%=      5-min Rain = 0
KFR1 151223Z 29006KT 17/14 A2982 RMK A01 T01660144  RH  087%=      5-min Rain = 0
KFR1 151224Z 31006KT 17/14 A2982 RMK A01 T01660144  RH  087%=      5-min Rain = 0
KFR1 151225Z 30006KT 17/14 A2982 RMK A01 T01660144  RH  087%=      5-min Rain = 0
KFR1 151226Z 29006KT 17/15 A2982 RMK A01 T01660145  RH  087%=      5-min Rain = 0
KFR1 151227Z 29007KT 17/15 A2982 RMK A01 T01670145  RH  087%=      5-min Rain = 0
KFR1 151228Z 29005KT 17/15 A2982 RMK A01 T01670145  RH  087%=      5-min Rain = 0
KFR1 151229Z 30005KT 17/15 A2982 RMK A01 T01660145  RH  087%=      5-min Rain = 0
KFR1 151230Z 29005KT 17/15 A2982 RMK A01 T01670145  RH  087%=      5-min Rain = 0
KFR1 151231Z 29005KT 17/15 A2982 RMK A01 T01670145  RH  087%=      5-min Rain = 0
KFR1 151232Z 30005KT 17/15 A2982 RMK A01 T01670146  RH  087%=      5-min Rain = 0
KFR1 151233Z 30004KT 17/15 A2982 RMK A01 T01680146  RH  087%=      5-min Rain = 0
KFR1 151234Z 30006KT 17/15 A2982 RMK A01 T01680146  RH  087%=      5-min Rain = 0
KFR1 151235Z 31007KT 17/15 A2982 RMK A01 T01680145  RH  086%=      5-min Rain = 0
KFR1 151236Z 30006KT 17/15 A2982 RMK A01 T01680145  RH  086%=      5-min Rain = 0
KFR1 151237Z 30005KT 17/15 A2982 RMK A01 T01690146  RH  087%=      5-min Rain = 0
KFR1 151238Z 30006KT 17/15 A2982 RMK A01 T01690147  RH  087%=      5-min Rain = 0
KFR1 151239Z 30006KT 17/15 A2981 RMK A01 T01690146  RH  086%=      5-min Rain = 0
KFR1 151240Z 32005KT 17/15 A2981 RMK A01 T01690146  RH  086%=      5-min Rain = 0
KFR1 151241Z 31005KT 17/15 A2982 RMK A01 T01700146  RH  086%=      5-min Rain = 0
KFR1 151242Z 32008KT 17/15 A2982 RMK A01 T01700146  RH  086%=      5-min Rain = 0
KFR1 151243Z 31009KT 17/15 A2982 RMK A01 T01700146  RH  086%=      5-min Rain = 0
KFR1 151244Z 32009KT 17/15 A2982 RMK A01 T01710146  RH  085%=      5-min Rain = 0
KFR1 151245Z 31006KT 17/15 A2982 RMK A01 T01710145  RH  085%=      5-min Rain = 0
KFR1 151246Z 32007KT 17/15 A2982 RMK A01 T01710146  RH  085%=      5-min Rain = 0
KFR1 151247Z 32006KT 17/15 A2982 RMK A01 T01710145  RH  085%=      5-min Rain = 0
KFR1 151248Z 31005KT 17/15 A2982 RMK A01 T01720145  RH  084%=      5-min Rain = 0
KFR1 151249Z 31006KT 17/15 A2982 RMK A01 T01720145  RH  084%=      5-min Rain = 0
KFR1 151250Z 32007KT 17/15 A2982 RMK A01 T01720145  RH  084%=      5-min Rain = 0
KFR1 151251Z 32006KT 17/15 A2982 RMK A01 T01730147  RH  085%=      5-min Rain = 0
KFR1 151252Z 32007KT 17/15 A2982 RMK A01 T01730146  RH  084%=      5-min Rain = 0
KFR1 151253Z 32006KT 17/15 A2982 RMK A01 T01730146  RH  084%=      5-min Rain = 0
KFR1 151254Z 32006KT 17/15 A2982 RMK A01 T01740147  RH  084%=      5-min Rain = 0
KFR1 151255Z 33005KT 17/15 A2982 RMK A01 T01740148  RH  084%=      5-min Rain = 0
KFR1 151256Z 32007KT 18/15 A2982 RMK A01 T01750148  RH  084%=      5-min Rain = 0
KFR1 151257Z 33008KT 18/15 A2982 RMK A01 T01750147  RH  083%=      5-min Rain = 0
KFR1 151258Z 33007KT 18/15 A2982 RMK A01 T01750146  RH  083%=      5-min Rain = 0
KFR1 151259Z 32006KT 18/15 A2982 RMK A01 T01750147  RH  083%=      5-min Rain = 0
KFR1 151300Z 32007KT 18/15 A2982 RMK A01 T01750146  RH  083%=      5-min Rain = 0
KFR1 151301Z 33007KT 18/15 A2982 RMK A01 T01760146  RH  083%=      5-min Rain = 0
KFR1 151302Z 32006KT 18/15 A2982 RMK A01 T01760147  RH  083%=      5-min Rain = 0
KFR1 151303Z 33007KT 18/15 A2982 RMK A01 T01760147  RH  083%=      5-min Rain = 0
KFR1 151304Z 33009KT 18/15 A2982 RMK A01 T01770147  RH  082%=      5-min Rain = 0
KFR1 151305Z 33008KT 18/15 A2982 RMK A01 T01760146  RH  082%=      5-min Rain = 0
KFR1 151306Z 32007KT 18/15 A2982 RMK A01 T01760147  RH  083%=      5-min Rain = 0
KFR1 151307Z 32006KT 18/15 A2982 RMK A01 T01760147  RH  083%=      5-min Rain = 0
KFR1 151308Z 33009KT 18/15 A2982 RMK A01 T01770147  RH  083%=      5-min Rain = 0
KFR1 151309Z 33008KT 18/15 A2982 RMK A01 T01770147  RH  082%=      5-min Rain = 0
KFR1 151310Z 33007G12KT 18/15 A2983 RMK A01 T01780148  RH  082%=      5-min Rain = 0
KFR1 151311Z 33008KT 18/15 A2983 RMK A01 T01780148  RH  083%=      5-min Rain = 0
KFR1 151312Z 33009KT 18/15 A2983 RMK A01 T01780147  RH  082%=      5-min Rain = 0
KFR1 151313Z 33007KT 18/15 A2982 RMK A01 T01790147  RH  082%=      5-min Rain = 0
KFR1 151314Z 33007KT 18/15 A2982 RMK A01 T01790148  RH  082%=      5-min Rain = 0
KFR1 151315Z 33009KT 18/15 A2983 RMK A01 T01790147  RH  081%=      5-min Rain = 0
KFR1 151316Z 35009KT 18/15 A2983 RMK A01 T01790147  RH  082%=      5-min Rain = 0
KFR1 151317Z 34008KT 18/15 A2983 RMK A01 T01800147  RH  081%=      5-min Rain = 0
KFR1 151318Z 32009KT 18/15 A2983 RMK A01 T01800148  RH  081%=      5-min Rain = 0
KFR1 151319Z 33007KT 18/15 A2983 RMK A01 T01800148  RH  082%=      5-min Rain = 0
KFR1 151320Z 33008KT 18/15 A2983 RMK A01 T01810150  RH  082%=      5-min Rain = 0
KFR1 151321Z 34006KT 18/15 A2983 RMK A01 T01820150  RH  081%=      5-min Rain = 0
KFR1 151322Z 33008KT 18/15 A2983 RMK A01 T01830150  RH  081%=      5-min Rain = 0
KFR1 151323Z 35005KT 18/15 A2983 RMK A01 T01830149  RH  080%=      5-min Rain = 0
KFR1 151324Z 36007KT 18/15 A2983 RMK A01 T01840151  RH  081%=      5-min Rain = 0
KFR1 151325Z 35008KT 19/15 A2983 RMK A01 T01850152  RH  081%=      5-min Rain = 0
KFR1 151326Z 35010KT 19/15 A2983 RMK A01 T01850151  RH  080%=      5-min Rain = 0
KFR1 151327Z 36009KT 19/15 A2983 RMK A01 T01860151  RH  080%=      5-min Rain = 0
KFR1 151328Z 36007KT 19/15 A2983 RMK A01 T01860151  RH  080%=      5-min Rain = 0
KFR1 151329Z 35009G15KT 19/15 A2983 RMK A01 T01870153  RH  081%=      5-min Rain = 0
KFR1 151330Z 35009KT 19/15 A2983 RMK A01 T01880152  RH  080%=      5-min Rain = 0
KFR1 151331Z 00010KT 19/15 A2983 RMK A01 T01880153  RH  080%=      5-min Rain = 0
KFR1 151332Z 36009KT 19/15 A2983 RMK A01 T01890153  RH  080%=      5-min Rain = 0
KFR1 151333Z 01010KT 19/15 A2984 RMK A01 T01900154  RH  080%=      5-min Rain = 0
KFR1 151334Z 36010KT 19/15 A2984 RMK A01 T01900154  RH  079%=      5-min Rain = 0
KFR1 151335Z 36009KT 19/16 A2984 RMK A01 T01910155  RH  079%=      5-min Rain = 0
KFR1 151336Z 35009G14KT 19/15 A2983 RMK A01 T01910154  RH  079%=      5-min Rain = 0
KFR1 151337Z 35009KT 19/15 A2983 RMK A01 T01910154  RH  079%=      5-min Rain = 0
KFR1 151338Z 35009KT 19/15 A2983 RMK A01 T01920154  RH  079%=      5-min Rain = 0
KFR1 151339Z 35009KT 19/15 A2984 RMK A01 T01920154  RH  078%=      5-min Rain = 0
KFR1 151340Z 34008KT 19/16 A2984 RMK A01 T01920155  RH  079%=      5-min Rain = 0
KFR1 151341Z 35010G15KT 19/16 A2984 RMK A01 T01930156  RH  079%=      5-min Rain = 0
KFR1 151342Z 00011KT 19/15 A2984 RMK A01 T01940154  RH  078%=      5-min Rain = 0
KFR1 151343Z 36011KT 19/16 A2984 RMK A01 T01940155  RH  078%=      5-min Rain = 0
KFR1 151344Z 36010KT 19/16 A2984 RMK A01 T01940155  RH  078%=      5-min Rain = 0
KFR1 151345Z 35009KT 20/16 A2984 RMK A01 T01950156  RH  078%=      5-min Rain = 0
KFR1 151346Z 00009KT 20/16 A2984 RMK A01 T01960158  RH  078%=      5-min Rain = 0
KFR1 151347Z 01007KT 20/16 A2984 RMK A01 T01970157  RH  078%=      5-min Rain = 0
KFR1 151348Z 01010KT 20/16 A2984 RMK A01 T01980157  RH  077%=      5-min Rain = 0
KFR1 151349Z 00009KT 20/16 A2984 RMK A01 T01980156  RH  076%=      5-min Rain = 0
KFR1 151350Z 01010KT 20/16 A2984 RMK A01 T01980156  RH  077%=      5-min Rain = 0
KFR1 151351Z 01008KT 20/16 A2984 RMK A01 T01980157  RH  077%=      5-min Rain = 0
KFR1 151352Z 01010KT 20/16 A2984 RMK A01 T01990156  RH  076%=      5-min Rain = 0
KFR1 151353Z 00009KT 20/16 A2984 RMK A01 T01990157  RH  077%=      5-min Rain = 0
KFR1 151354Z 00011KT 20/16 A2984 RMK A01 T01990156  RH  076%=      5-min Rain = 0
KFR1 151355Z 00013KT 20/16 A2984 RMK A01 T01990156  RH  076%=      5-min Rain = 0
KFR1 151356Z 00011KT 20/16 A2984 RMK A01 T01990155  RH  076%=      5-min Rain = 0
KFR1 151357Z 01010KT 20/16 A2984 RMK A01 T01990156  RH  076%=      5-min Rain = 0
KFR1 151358Z 01010G15KT 20/16 A2984 RMK A01 T01990155  RH  076%=      5-min Rain = 0
KFR1 151359Z 01009KT 20/16 A2984 RMK A01 T01990156  RH  076%=      5-min Rain = 0
KFR1 151400Z 35012KT 20/16 A2984 RMK A01 T02000156  RH  076%=      5-min Rain = 0
KFR1 151401Z 00010G15KT 20/16 A2984 RMK A01 T02000156  RH  075%=      5-min Rain = 0
KFR1 151402Z 00010KT 20/16 A2984 RMK A01 T02000157  RH  076%=      5-min Rain = 0
KFR1 151403Z 01010KT 20/16 A2984 RMK A01 T02010157  RH  076%=      5-min Rain = 0
KFR1 151404Z 00011G16KT 20/16 A2984 RMK A01 T02010158  RH  076%=      5-min Rain = 0
KFR1 151405Z 01009KT 20/16 A2984 RMK A01 T02020157  RH  075%=      5-min Rain = 0
KFR1 151406Z 01007KT 20/16 A2984 RMK A01 T02030158  RH  076%=      5-min Rain = 0
KFR1 151407Z 00010KT 20/16 A2984 RMK A01 T02040159  RH  075%=      5-min Rain = 0
KFR1 151408Z 02009KT 20/16 A2985 RMK A01 T02040158  RH  075%=      5-min Rain = 0
KFR1 151409Z 01009KT 21/16 A2985 RMK A01 T02050158  RH  075%=      5-min Rain = 0
KFR1 151410Z 36012KT 21/16 A2985 RMK A01 T02050157  RH  074%=      5-min Rain = 0
KFR1 151411Z 00011G16KT 21/16 A2985 RMK A01 T02050157  RH  074%=      5-min Rain = 0
KFR1 151412Z 01009G14KT 20/16 A2985 RMK A01 T02040158  RH  075%=      5-min Rain = 0
KFR1 151413Z 01009KT 21/16 A2985 RMK A01 T02050158  RH  074%=      5-min Rain = 0
KFR1 151414Z 01008KT 21/16 A2985 RMK A01 T02060160  RH  075%=      5-min Rain = 0
KFR1 151415Z 01010KT 21/16 A2985 RMK A01 T02070161  RH  075%=      5-min Rain = 0
KFR1 151416Z 01010G15KT 21/16 A2985 RMK A01 T02080160  RH  074%=      5-min Rain = 0
KFR1 151417Z 01008KT 21/16 A2985 RMK A01 T02090162  RH  074%=      5-min Rain = 0
KFR1 151418Z 01011KT 21/16 A2985 RMK A01 T02090162  RH  074%=      5-min Rain = 0
KFR1 151419Z 01011KT 21/16 A2985 RMK A01 T02090160  RH  073%=      5-min Rain = 0
KFR1 151420Z 01012KT 21/16 A2985 RMK A01 T02090160  RH  073%=      5-min Rain = 0
KFR1 151421Z 01012KT 21/16 A2985 RMK A01 T02090160  RH  073%=      5-min Rain = 0
KFR1 151422Z 01012KT 21/16 A2985 RMK A01 T02090159  RH  073%=      5-min Rain = 0
KFR1 151423Z 01011KT 21/16 A2985 RMK A01 T02090160  RH  074%=      5-min Rain = 0
KFR1 151424Z 00012KT 21/16 A2985 RMK A01 T02090160  RH  074%=      5-min Rain = 0
KFR1 151425Z 01009KT 21/16 A2985 RMK A01 T02090160  RH  073%=      5-min Rain = 0
KFR1 151426Z 36011KT 21/16 A2985 RMK A01 T02100161  RH  073%=      5-min Rain = 0
KFR1 151427Z 00011KT 21/16 A2985 RMK A01 T02100161  RH  073%=      5-min Rain = 0
KFR1 151428Z 36010KT 21/16 A2985 RMK A01 T02110161  RH  073%=      5-min Rain = 0
KFR1 151429Z 00009KT 21/16 A2985 RMK A01 T02110160  RH  073%=      5-min Rain = 0
KFR1 151430Z 01008KT 21/16 A2985 RMK A01 T02110161  RH  073%=      5-min Rain = 0
KFR1 151431Z 01007KT 21/16 A2985 RMK A01 T02110162  RH  074%=      5-min Rain = 0
KFR1 151432Z 01008KT 21/16 A2985 RMK A01 T02120162  RH  073%=      5-min Rain = 0
KFR1 151433Z 00010KT 21/16 A2985 RMK A01 T02130162  RH  073%=      5-min Rain = 0
KFR1 151434Z 02010KT 21/16 A2985 RMK A01 T02130161  RH  072%=      5-min Rain = 0
KFR1 151435Z 01009KT 21/16 A2985 RMK A01 T02130161  RH  073%=      5-min Rain = 0
KFR1 151436Z 01010KT 21/16 A2985 RMK A01 T02120162  RH  073%=      5-min Rain = 0
KFR1 151437Z 01011KT 21/16 A2985 RMK A01 T02130163  RH  073%=      5-min Rain = 0
KFR1 151438Z 02009KT 21/16 A2985 RMK A01 T02140162  RH  072%=      5-min Rain = 0
KFR1 151439Z 00009KT 22/16 A2985 RMK A01 T02150164  RH  073%=      5-min Rain = 0
KFR1 151440Z 00009KT 22/16 A2985 RMK A01 T02160164  RH  073%=      5-min Rain = 0
KFR1 151441Z 00012KT 22/16 A2986 RMK A01 T02160163  RH  072%=      5-min Rain = 0
KFR1 151442Z 00011KT 22/16 A2986 RMK A01 T02160163  RH  072%=      5-min Rain = 0
KFR1 151443Z 00009G14KT 22/17 A2986 RMK A01 T02160165  RH  073%=      5-min Rain = 0
KFR1 151444Z 01010KT 22/17 A2986 RMK A01 T02170166  RH  073%=      5-min Rain = 0
KFR1 151445Z 01011KT 22/17 A2986 RMK A01 T02180166  RH  072%=      5-min Rain = 0
KFR1 151446Z 01010KT 22/16 A2986 RMK A01 T02180164  RH  072%=      5-min Rain = 0
KFR1 151447Z 01012KT 22/17 A2986 RMK A01 T02170165  RH  072%=      5-min Rain = 0
KFR1 151448Z 01009KT 22/16 A2986 RMK A01 T02180164  RH  072%=      5-min Rain = 0
KFR1 151449Z 01009KT 22/17 A2986 RMK A01 T02180167  RH  072%=      5-min Rain = 0
KFR1 151450Z 01010KT 22/17 A2986 RMK A01 T02190165  RH  071%=      5-min Rain = 0
KFR1 151451Z 01009G14KT 22/17 A2986 RMK A01 T02200166  RH  071%=      5-min Rain = 0
KFR1 151452Z 00009KT 22/17 A2986 RMK A01 T02200166  RH  071%=      5-min Rain = 0
KFR1 151453Z 01010G15KT 22/17 A2986 RMK A01 T02210165  RH  071%=      5-min Rain = 0
KFR1 151454Z 01010KT 22/17 A2986 RMK A01 T02200165  RH  071%=      5-min Rain = 0
KFR1 151455Z 01011KT 22/17 A2986 RMK A01 T02200166  RH  071%=      5-min Rain = 0
KFR1 151456Z 01008G13KT 22/17 A2986 RMK A01 T02210166  RH  071%=      5-min Rain = 0
KFR1 151457Z 01005KT 22/17 A2986 RMK A01 T02220168  RH  072%=      5-min Rain = 0
KFR1 151458Z 01009KT 22/17 A2986 RMK A01 T02240169  RH  071%=      5-min Rain = 0
KFR1 151459Z 01008KT 22/17 A2986 RMK A01 T02240168  RH  070%=      5-min Rain = 0
KFR1 151500Z 01009KT 23/17 A2986 RMK A01 T02250167  RH  070%=      5-min Rain = 0
KFR1 151501Z 01009KT 22/17 A2986 RMK A01 T02240166  RH  070%=      5-min Rain = 0
KFR1 151502Z 01010KT 22/17 A2987 RMK A01 T02240166  RH  069%=      5-min Rain = 0
KFR1 151503Z 01010KT 22/17 A2986 RMK A01 T02240167  RH  070%=      5-min Rain = 0
KFR1 151504Z 02010KT 22/17 A2987 RMK A01 T02240167  RH  070%=      5-min Rain = 0
KFR1 151505Z 01008KT 22/17 A2987 RMK A01 T02240167  RH  070%=      5-min Rain = 0
KFR1 151506Z 00007KT 23/17 A2987 RMK A01 T02250168  RH  070%=      5-min Rain = 0
KFR1 151507Z 00008KT 23/17 A2987 RMK A01 T02250168  RH  070%=      5-min Rain = 0
KFR1 151508Z 36009KT 23/17 A2987 RMK A01 T02250167  RH  069%=      5-min Rain = 0
KFR1 151509Z 36009KT 23/17 A2987 RMK A01 T02250167  RH  070%=      5-min Rain = 0
KFR1 151510Z 00008KT 22/17 A2987 RMK A01 T02240169  RH  071%=      5-min Rain = 0
KFR1 151511Z 01009KT 23/17 A2987 RMK A01 T02250171  RH  072%=      5-min Rain = 0
KFR1 151512Z 01009KT 23/17 A2987 RMK A01 T02260169  RH  070%=      5-min Rain = 0
KFR1 151513Z 36009G14KT 23/17 A2987 RMK A01 T02260166  RH  069%=      5-min Rain = 0
KFR1 151514Z 00009KT 23/17 A2987 RMK A01 T02260168  RH  070%=      5-min Rain = 0
KFR1 151515Z 01009KT 23/17 A2987 RMK A01 T02280169  RH  069%=      5-min Rain = 0
KFR1 151516Z 01009KT 23/17 A2987 RMK A01 T02280167  RH  068%=      5-min Rain = 0
KFR1 151517Z 01009KT 23/17 A2987 RMK A01 T02280168  RH  069%=      5-min Rain = 0
KFR1 151518Z 00008KT 23/17 A2987 RMK A01 T02280167  RH  068%=      5-min Rain = 0
KFR1 151519Z 01009KT 23/17 A2987 RMK A01 T02280168  RH  069%=      5-min Rain = 0
KFR1 151520Z 02011KT 23/17 A2987 RMK A01 T02280167  RH  068%=      5-min Rain = 0
KFR1 151521Z 01009KT 23/17 A2987 RMK A01 T02280169  RH  069%=      5-min Rain = 0
KFR1 151522Z 01009KT 23/17 A2987 RMK A01 T02300170  RH  069%=      5-min Rain = 0
KFR1 151523Z 00008KT 23/17 A2987 RMK A01 T02310171  RH  069%=      5-min Rain = 0
KFR1 151524Z 02010KT 23/17 A2987 RMK A01 T02320169  RH  067%=      5-min Rain = 0
KFR1 151525Z 01008KT 23/17 A2987 RMK A01 T02310168  RH  067%=      5-min Rain = 0
KFR1 151526Z 01009KT 23/17 A2987 RMK A01 T02310169  RH  068%=      5-min Rain = 0
KFR1 151527Z 01011KT 23/17 A2987 RMK A01 T02310167  RH  067%=      5-min Rain = 0
KFR1 151528Z 01011KT 23/17 A2987 RMK A01 T02310168  RH  068%=      5-min Rain = 0
KFR1 151529Z 00009KT 23/17 A2987 RMK A01 T02310169  RH  068%=      5-min Rain = 0
KFR1 151530Z 01008KT 23/17 A2987 RMK A01 T02310168  RH  067%=      5-min Rain = 0
KFR1 151531Z 00008KT 23/17 A2987 RMK A01 T02320170  RH  068%=      5-min Rain = 0
KFR1 151532Z 01008KT 23/17 A2987 RMK A01 T02320169  RH  067%=      5-min Rain = 0
KFR1 151533Z 01009KT 23/17 A2987 RMK A01 T02320171  RH  068%=      5-min Rain = 0
KFR1 151534Z 02009KT 23/17 A2987 RMK A01 T02330171  RH  068%=      5-min Rain = 0
KFR1 151535Z 02008KT 23/17 A2987 RMK A01 T02330171  RH  068%=      5-min Rain = 0
KFR1 151536Z 02008KT 23/17 A2987 RMK A01 T02330169  RH  067%=      5-min Rain = 0
KFR1 151537Z 02008KT 23/17 A2987 RMK A01 T02330170  RH  068%=      5-min Rain = 0
KFR1 151538Z 02007KT 23/17 A2987 RMK A01 T02320170  RH  068%=      5-min Rain = 0
KFR1 151539Z 01008KT 23/17 A2987 RMK A01 T02330173  RH  069%=      5-min Rain = 0
KFR1 151540Z 01009KT 23/17 A2987 RMK A01 T02340173  RH  068%=      5-min Rain = 0
KFR1 151541Z 01008KT 24/17 A2987 RMK A01 T02350173  RH  068%=      5-min Rain = 0
KFR1 151542Z 02009G14KT 24/17 A2987 RMK A01 T02350172  RH  068%=      5-min Rain = 0
KFR1 151543Z 01010KT 23/17 A2987 RMK A01 T02340171  RH  068%=      5-min Rain = 0
KFR1 151544Z 36008KT 23/17 A2987 RMK A01 T02330172  RH  068%=      5-min Rain = 0
KFR1 151545Z 01010KT 23/17 A2987 RMK A01 T02340170  RH  067%=      5-min Rain = 0
KFR1 151546Z 02008G14KT 23/17 A2987 RMK A01 T02340173  RH  068%=      5-min Rain = 0
KFR1 151547Z 02007KT 24/17 A2987 RMK A01 T02350172  RH  068%=      5-min Rain = 0
KFR1 151548Z 02008KT 24/18 A2987 RMK A01 T02360177  RH  069%=      5-min Rain = 0
KFR1 151549Z 02007KT 24/18 A2987 RMK A01 T02380175  RH  068%=      5-min Rain = 0
KFR1 151550Z 03008KT 24/17 A2987 RMK A01 T02390173  RH  066%=      5-min Rain = 0
KFR1 151551Z 00009G14KT 24/17 A2987 RMK A01 T02390174  RH  067%=      5-min Rain = 0
KFR1 151552Z 01009KT 24/17 A2987 RMK A01 T02380170  RH  065%=      5-min Rain = 0
KFR1 151553Z 02009KT 24/17 A2987 RMK A01 T02380171  RH  066%=      5-min Rain = 0
KFR1 151554Z 03008G13KT 24/17 A2987 RMK A01 T02370172  RH  067%=      5-min Rain = 0
KFR1 151555Z 02008KT 24/17 A2987 RMK A01 T02380171  RH  066%=      5-min Rain = 0
KFR1 151556Z 00009KT 24/17 A2987 RMK A01 T02380169  RH  065%=      5-min Rain = 0
KFR1 151557Z 03007KT 24/17 A2987 RMK A01 T02370171  RH  066%=      5-min Rain = 0
KFR1 151558Z 04010KT 24/17 A2987 RMK A01 T02380174  RH  067%=      5-min Rain = 0
KFR1 151559Z 03007KT 24/17 A2987 RMK A01 T02390174  RH  067%=      5-min Rain = 0
KFR1 151600Z 01009KT 24/17 A2987 RMK A01 T02410172  RH  066%=      5-min Rain = 0
KFR1 151601Z 02009KT 24/17 A2987 RMK A01 T02410172  RH  065%=      5-min Rain = 0
KFR1 151602Z 01009KT 24/17 A2987 RMK A01 T02410172  RH  065%=      5-min Rain = 0
KFR1 151603Z 02008KT 24/17 A2987 RMK A01 T02410174  RH  066%=      5-min Rain = 0
KFR1 151604Z 02010KT 24/17 A2987 RMK A01 T02410172  RH  066%=      5-min Rain = 0
KFR1 151605Z 01009KT 24/17 A2987 RMK A01 T02400173  RH  066%=      5-min Rain = 0
KFR1 151606Z 02008KT 24/18 A2988 RMK A01 T02410175  RH  067%=      5-min Rain = 0
KFR1 151607Z 01011KT 24/17 A2988 RMK A01 T02420172  RH  065%=      5-min Rain = 0
KFR1 151608Z 02007KT 24/17 A2988 RMK A01 T02400173  RH  066%=      5-min Rain = 0
KFR1 151609Z 03008KT 24/18 A2988 RMK A01 T02420178  RH  067%=      5-min Rain = 0
KFR1 151610Z 02007KT 25/18 A2988 RMK A01 T02450179  RH  067%=      5-min Rain = 0
KFR1 151611Z 02008KT 25/18 A2988 RMK A01 T02460178  RH  066%=      5-min Rain = 0
KFR1 151612Z 02009KT 25/18 A2988 RMK A01 T02460175  RH  065%=      5-min Rain = 0
KFR1 151613Z 01007KT 25/18 A2988 RMK A01 T02450175  RH  065%=      5-min Rain = 0
KFR1 151614Z 03008KT 24/18 A2988 RMK A01 T02440175  RH  065%=      5-min Rain = 0
KFR1 151615Z 02006KT 24/18 A2988 RMK A01 T02440176  RH  066%=      5-min Rain = 0
KFR1 151616Z 01009KT 24/18 A2988 RMK A01 T02440176  RH  065%=      5-min Rain = 0
KFR1 151617Z 02010KT 24/17 A2988 RMK A01 T02430171  RH  064%=      5-min Rain = 0
KFR1 151618Z 01009KT 24/18 A2988 RMK A01 T02420175  RH  066%=      5-min Rain = 0
KFR1 151619Z 02008G13KT 24/18 A2988 RMK A01 T02430177  RH  067%=      5-min Rain = 0
KFR1 151620Z 03010KT 24/18 A2988 RMK A01 T02440177  RH  066%=      5-min Rain = 0
KFR1 151621Z 03009KT 25/18 A2988 RMK A01 T02460178  RH  066%=      5-min Rain = 0
KFR1 151622Z 03008KT 25/18 A2988 RMK A01 T02480178  RH  065%=      5-min Rain = 0
KFR1 151623Z 04006KT 25/18 A2988 RMK A01 T02490181  RH  066%=      5-min Rain = 0
KFR1 151624Z 03007G12KT 25/19 A2988 RMK A01 T02530185  RH  066%=      5-min Rain = 0
KFR1 151625Z 02008KT 25/18 A2988 RMK A01 T02530176  RH  063%=      5-min Rain = 0
KFR1 151626Z 02007KT 25/18 A2988 RMK A01 T02500177  RH  064%=      5-min Rain = 0
KFR1 151627Z 02009KT 25/18 A2988 RMK A01 T02510180  RH  065%=      5-min Rain = 0
KFR1 151628Z 04008KT 25/18 A2988 RMK A01 T02510180  RH  065%=      5-min Rain = 0
KFR1 151629Z 02007KT 25/18 A2988 RMK A01 T02530183  RH  065%=      5-min Rain = 0
KFR1 151630Z 01011KT 25/18 A2988 RMK A01 T02530176  RH  062%=      5-min Rain = 0
KFR1 151631Z 02010KT 25/17 A2988 RMK A01 T02490174  RH  063%=      5-min Rain = 0
KFR1 151632Z 02011KT 25/17 A2988 RMK A01 T02470173  RH  064%=      5-min Rain = 0
KFR1 151633Z 01009KT 25/18 A2988 RMK A01 T02460176  RH  065%=      5-min Rain = 0
KFR1 151634Z 01011KT 25/18 A2988 RMK A01 T02480176  RH  064%=      5-min Rain = 0
KFR1 151635Z 01009KT 25/18 A2988 RMK A01 T02490176  RH  064%=      5-min Rain = 0
KFR1 151636Z 02012KT 25/18 A2988 RMK A01 T02490176  RH  064%=      5-min Rain = 0
KFR1 151637Z 02009KT 25/18 A2988 RMK A01 T02490176  RH  064%=      5-min Rain = 0
KFR1 151638Z 03010KT 25/18 A2988 RMK A01 T02480179  RH  065%=      5-min Rain = 0
KFR1 151639Z 02011G16KT 25/18 A2988 RMK A01 T02490176  RH  064%=      5-min Rain = 0
KFR1 151640Z 02011KT 25/18 A2988 RMK A01 T02500179  RH  065%=      5-min Rain = 0
KFR1 151641Z 02010KT 25/18 A2988 RMK A01 T02510178  RH  064%=      5-min Rain = 0
KFR1 151642Z 02010KT 25/18 A2988 RMK A01 T02510179  RH  064%=      5-min Rain = 0
KFR1 151643Z 03008KT 25/18 A2988 RMK A01 T02520178  RH  064%=      5-min Rain = 0
KFR1 151644Z 02008KT 25/18 A2988 RMK A01 T02520181  RH  064%=      5-min Rain = 0
KFR1 151645Z 01008KT 25/18 A2988 RMK A01 T02530177  RH  063%=      5-min Rain = 0
KFR1 151646Z 01007KT 25/18 A2988 RMK A01 T02540180  RH  064%=      5-min Rain = 0
KFR1 151647Z 03010KT 25/18 A2988 RMK A01 T02540179  RH  063%=      5-min Rain = 0
KFR1 151648Z 02009KT 25/18 A2988 RMK A01 T02530176  RH  062%=      5-min Rain = 0
KFR1 151649Z 02010KT 25/18 A2988 RMK A01 T02520177  RH  063%=      5-min Rain = 0
KFR1 151650Z 00009KT 25/18 A2988 RMK A01 T02520178  RH  063%=      5-min Rain = 0
KFR1 151651Z 01009KT 25/18 A2988 RMK A01 T02530178  RH  063%=      5-min Rain = 0
KFR1 151652Z 02007KT 25/18 A2988 RMK A01 T02530179  RH  064%=      5-min Rain = 0
KFR1 151653Z 02011KT 25/18 A2988 RMK A01 T02540180  RH  064%=      5-min Rain = 0
KFR1 151654Z 02011KT 26/18 A2988 RMK A01 T02550178  RH  062%=      5-min Rain = 0
KFR1 151655Z 02013KT 25/18 A2988 RMK A01 T02530177  RH  063%=      5-min Rain = 0
KFR1 151656Z 03009KT 25/18 A2988 RMK A01 T02520178  RH  064%=      5-min Rain = 0
KFR1 151657Z 03009G14KT 25/19 A2988 RMK A01 T02540185  RH  066%=      5-min Rain = 0
KFR1 151658Z 02011KT 26/18 A2988 RMK A01 T02560179  RH  062%=      5-min Rain = 0
KFR1 151659Z 03010KT 26/18 A2988 RMK A01 T02550180  RH  063%=      5-min Rain = 0
KFR1 151700Z 02011KT 26/18 A2988 RMK A01 T02550181  RH  064%=      5-min Rain = 0
KFR1 151701Z 02011KT 26/18 A2988 RMK A01 T02550181  RH  063%=      5-min Rain = 0
KFR1 151702Z 02012KT 26/18 A2988 RMK A01 T02550178  RH  062%=      5-min Rain = 0
KFR1 151703Z 03009KT 25/18 A2988 RMK A01 T02540180  RH  064%=      5-min Rain = 0
KFR1 151704Z 03008KT 26/18 A2988 RMK A01 T02550181  RH  064%=      5-min Rain = 0
KFR1 151705Z 02008G13KT 26/18 A2988 RMK A01 T02570184  RH  064%=      5-min Rain = 0
KFR1 151706Z 01007KT 26/19 A2988 RMK A01 T02590185  RH  063%=      5-min Rain = 0
KFR1 151707Z 01009KT 26/18 A2988 RMK A01 T02600183  RH  063%=      5-min Rain = 0
KFR1 151708Z 02010KT 26/18 A2988 RMK A01 T02590181  RH  062%=      5-min Rain = 0
KFR1 151709Z 02010KT 26/18 A2988 RMK A01 T02580183  RH  063%=      5-min Rain = 0
KFR1 151710Z 02009KT 26/18 A2988 RMK A01 T02580184  RH  064%=      5-min Rain = 0
KFR1 151711Z 02010KT 26/18 A2988 RMK A01 T02600180  RH  062%=      5-min Rain = 0
KFR1 151712Z 02010KT 26/18 A2988 RMK A01 T02580181  RH  062%=      5-min Rain = 0
KFR1 151713Z 02010KT 26/18 A2988 RMK A01 T02580181  RH  062%=      5-min Rain = 0
KFR1 151714Z 01010KT 26/18 A2988 RMK A01 T02570180  RH  062%=      5-min Rain = 0
KFR1 151715Z 03011KT 26/18 A2988 RMK A01 T02570184  RH  064%=      5-min Rain = 0
KFR1 151716Z 04010KT 26/18 A2988 RMK A01 T02590183  RH  063%=      5-min Rain = 0
KFR1 151717Z 01011KT 26/18 A2988 RMK A01 T02600182  RH  062%=      5-min Rain = 0
KFR1 151718Z 02007G12KT 26/19 A2988 RMK A01 T02600187  RH  064%=      5-min Rain = 0
KFR1 151719Z 02011KT 26/18 A2988 RMK A01 T02610184  RH  062%=      5-min Rain = 0
KFR1 151720Z 03007KT 26/19 A2988 RMK A01 T02610186  RH  063%=      5-min Rain = 0
KFR1 151721Z 03008KT 26/19 A2988 RMK A01 T02630190  RH  064%=      5-min Rain = 0
KFR1 151722Z 03011G17KT 27/19 A2988 RMK A01 T02650186  RH  062%=      5-min Rain = 0
KFR1 151723Z 02011KT 26/18 A2988 RMK A01 T02640184  RH  061%=      5-min Rain = 0
KFR1 151724Z 02009KT 26/19 A2988 RMK A01 T02640185  RH  062%=      5-min Rain = 0
KFR1 151725Z 02007KT 26/19 A2988 RMK A01 T02640186  RH  062%=      5-min Rain = 0
KFR1 151726Z 02011KT 27/19 A2988 RMK A01 T02660187  RH  062%=      5-min Rain = 0
KFR1 151727Z 02013KT 27/18 A2988 RMK A01 T02660184  RH  061%=      5-min Rain = 0
KFR1 151728Z 02013KT 26/18 A2988 RMK A01 T02640182  RH  060%=      5-min Rain = 0
KFR1 151729Z 03011KT 26/18 A2988 RMK A01 T02630183  RH  061%=      5-min Rain = 0
KFR1 151730Z 02012KT 26/18 A2988 RMK A01 T02630184  RH  062%=      5-min Rain = 0
KFR1 151731Z 03009G16KT 26/19 A2988 RMK A01 T02630186  RH  063%=      5-min Rain = 0
KFR1 151732Z 03007KT 26/19 A2988 RMK A01 T02640192  RH  065%=      5-min Rain = 0
KFR1 151733Z 03009KT 27/19 A2988 RMK A01 T02680186  RH  061%=      5-min Rain = 0
KFR1 151734Z 04012KT 27/19 A2988 RMK A01 T02670186  RH  061%=      5-min Rain = 0
KFR1 151735Z 04010KT 27/18 A2988 RMK A01 T02660183  RH  060%=      5-min Rain = 0
KFR1 151736Z 02010KT 27/19 A2988 RMK A01 T02660186  RH  062%=      5-min Rain = 0
KFR1 151737Z 03010KT 27/18 A2988 RMK A01 T02650183  RH  061%=      5-min Rain = 0
KFR1 151738Z 02013KT 27/19 A2988 RMK A01 T02650186  RH  062%=      5-min Rain = 0
KFR1 151739Z 03008KT 27/19 A2988 RMK A01 T02660186  RH  061%=      5-min Rain = 0
KFR1 151740Z 02012KT 27/19 A2988 RMK A01 T02680188  RH  062%=      5-min Rain = 0
KFR1 151741Z 02013KT 27/18 A2988 RMK A01 T02680181  RH  059%=      5-min Rain = 0
KFR1 151742Z 03012KT 26/18 A2988 RMK A01 T02640180  RH  060%=      5-min Rain = 0
KFR1 151743Z 02009G15KT 26/18 A2988 RMK A01 T02630184  RH  062%=      5-min Rain = 0
KFR1 151744Z 02010KT 27/18 A2988 RMK A01 T02650184  RH  061%=      5-min Rain = 0
KFR1 151745Z 02012KT 27/18 A2988 RMK A01 T02660184  RH  061%=      5-min Rain = 0
KFR1 151746Z 03011KT 27/18 A2988 RMK A01 T02660182  RH  060%=      5-min Rain = 0
KFR1 151747Z 02012KT 27/18 A2988 RMK A01 T02660184  RH  061%=      5-min Rain = 0
KFR1 151748Z 02011KT 27/19 A2988 RMK A01 T02670188  RH  062%=      5-min Rain = 0
KFR1 151749Z 01013KT 27/18 A2988 RMK A01 T02680182  RH  059%=      5-min Rain = 0
KFR1 151750Z 02009KT 27/18 A2988 RMK A01 T02660184  RH  061%=      5-min Rain = 0
KFR1 151751Z 01012KT 27/18 A2988 RMK A01 T02660182  RH  060%=      5-min Rain = 0
KFR1 151752Z 04009KT 27/19 A2988 RMK A01 T02660185  RH  061%=      5-min Rain = 0
KFR1 151753Z 03009KT 27/19 A2988 RMK A01 T02670186  RH  061%=      5-min Rain = 0
KFR1 151754Z 02011KT 27/19 A2988 RMK A01 T02690185  RH  060%=      5-min Rain = 0
KFR1 151755Z 03009KT 27/19 A2988 RMK A01 T02690187  RH  061%=      5-min Rain = 0
KFR1 151756Z 03009G14KT 27/19 A2988 RMK A01 T02710188  RH  060%=      5-min Rain = 0
KFR1 151757Z 02010KT 27/18 A2988 RMK A01 T02710183  RH  059%=      5-min Rain = 0
KFR1 151758Z 02013KT 27/19 A2988 RMK A01 T02700185  RH  060%=      5-min Rain = 0
KFR1 151759Z 02011KT 27/18 A2988 RMK A01 T02690184  RH  060%=      5-min Rain = 0
KFR1 151800Z 02012KT 27/19 A2988 RMK A01 T02700186  RH  060%=      5-min Rain = 0
KFR1 151801Z 02011KT 27/18 A2988 RMK A01 T02710183  RH  059%=      5-min Rain = 0
KFR1 151802Z 00009KT 27/18 A2988 RMK A01 T02720184  RH  059%=      5-min Rain = 0
KFR1 151803Z 02012G18KT 27/19 A2988 RMK A01 T02730185  RH  059%=      5-min Rain = 0
KFR1 151804Z 02008G13KT 27/18 A2987 RMK A01 T02720182  RH  058%=      5-min Rain = 0
KFR1 151805Z 02011KT 27/19 A2987 RMK A01 T02710185  RH  059%=      5-min Rain = 0
KFR1 151806Z 03011G17KT 27/18 A2987 RMK A01 T02710182  RH  059%=      5-min Rain = 0
KFR1 151807Z 04011KT 27/18 A2987 RMK A01 T02720184  RH  059%=      5-min Rain = 0
KFR1 151808Z 03011KT 27/18 A2988 RMK A01 T02730181  RH  057%=      5-min Rain = 0
KFR1 151809Z 01010KT 27/19 A2988 RMK A01 T02730185  RH  059%=      5-min Rain = 0
KFR1 151810Z 03010KT 27/18 A2988 RMK A01 T02730183  RH  058%=      5-min Rain = 0
KFR1 151811Z 04010KT 27/19 A2988 RMK A01 T02730186  RH  059%=      5-min Rain = 0
KFR1 151812Z 04012KT 27/18 A2988 RMK A01 T02730183  RH  058%=      5-min Rain = 0
KFR1 151813Z 03012G18KT 27/18 A2988 RMK A01 T02730184  RH  058%=      5-min Rain = 0
KFR1 151814Z 03011KT 27/18 A2988 RMK A01 T02730180  RH  057%=      5-min Rain = 0
KFR1 151815Z 02011KT 27/18 A2988 RMK A01 T02730184  RH  058%=      5-min Rain = 0
KFR1 151816Z 04009KT 27/18 A2988 RMK A01 T02740183  RH  058%=      5-min Rain = 0
KFR1 151817Z 03008G15KT 28/19 A2988 RMK A01 T02750187  RH  058%=      5-min Rain = 0
KFR1 151818Z 04010KT 28/18 A2988 RMK A01 T02770184  RH  057%=      5-min Rain = 0
KFR1 151819Z 02014G19KT 28/18 A2988 RMK A01 T02760182  RH  056%=      5-min Rain = 0
KFR1 151820Z 03013KT 27/18 A2988 RMK A01 T02740182  RH  057%=      5-min Rain = 0
KFR1 151821Z 04015G20KT 27/18 A2988 RMK A01 T02740184  RH  058%=      5-min Rain = 0
KFR1 151822Z 04014KT 28/18 A2988 RMK A01 T02750181  RH  057%=      5-min Rain = 0
KFR1 151823Z 05011KT 28/18 A2988 RMK A01 T02750182  RH  057%=      5-min Rain = 0
KFR1 151824Z 03012G17KT 28/18 A2988 RMK A01 T02750182  RH  057%=      5-min Rain = 0
KFR1 151825Z 03013KT 28/18 A2988 RMK A01 T02750182  RH  057%=      5-min Rain = 0
KFR1 151826Z 02012KT 28/18 A2988 RMK A01 T02750181  RH  056%=      5-min Rain = 0
KFR1 151827Z 02010G16KT 28/18 A2988 RMK A01 T02750182  RH  057%=      5-min Rain = 0
KFR1 151828Z 02014G21KT 28/18 A2987 RMK A01 T02750180  RH  056%=      5-min Rain = 0
KFR1 151829Z 03016KT 28/18 A2987 RMK A01 T02750180  RH  056%=      5-min Rain = 0
KFR1 151830Z 03010G15KT 28/18 A2988 RMK A01 T02750182  RH  057%=      5-min Rain = 0
KFR1 151831Z 03011KT 28/19 A2988 RMK A01 T02760187  RH  058%=      5-min Rain = 0
KFR1 151832Z 04014KT 28/18 A2987 RMK A01 T02780182  RH  056%=      5-min Rain = 0
KFR1 151833Z 03012G18KT 28/18 A2987 RMK A01 T02770180  RH  055%=      5-min Rain = 0
KFR1 151834Z 02013G19KT 28/18 A2987 RMK A01 T02770184  RH  057%=      5-min Rain = 0
KFR1 151835Z 02012G18KT 28/18 A2987 RMK A01 T02770182  RH  056%=      5-min Rain = 0
KFR1 151836Z 02015G22KT 28/18 A2987 RMK A01 T02760181  RH  056%=      5-min Rain = 0
KFR1 151837Z 04012KT 28/18 A2987 RMK A01 T02760180  RH  056%=      5-min Rain = 0
KFR1 151838Z 03010KT 28/18 A2987 RMK A01 T02760184  RH  057%=      5-min Rain = 0
KFR1 151839Z 02012G18KT 28/18 A2987 RMK A01 T02790184  RH  056%=      5-min Rain = 0
KFR1 151840Z 02011G18KT 28/18 A2987 RMK A01 T02790182  RH  055%=      5-min Rain = 0
KFR1 151841Z 02010G15KT 28/18 A2987 RMK A01 T02800183  RH  056%=      5-min Rain = 0
KFR1 151842Z 04013G18KT 28/18 A2987 RMK A01 T02800182  RH  055%=      5-min Rain = 0
KFR1 151843Z 05014G19KT 28/18 A2987 RMK A01 T02800180  RH  055%=      5-min Rain = 0
KFR1 151844Z 05014KT 28/18 A2987 RMK A01 T02800179  RH  054%=      5-min Rain = 0
KFR1 151845Z 05015KT 28/18 A2987 RMK A01 T02800180  RH  054%=      5-min Rain = 0
KFR1 151846Z 04014KT 28/18 A2987 RMK A01 T02800178  RH  054%=      5-min Rain = 0
KFR1 151847Z 04011G17KT 28/18 A2987 RMK A01 T02800183  RH  055%=      5-min Rain = 0
KFR1 151848Z 04012G17KT 28/18 A2987 RMK A01 T02820183  RH  055%=      5-min Rain = 0
KFR1 151849Z 04014G19KT 28/18 A2987 RMK A01 T02820184  RH  055%=      5-min Rain = 0
KFR1 151850Z 04016G21KT 28/18 A2987 RMK A01 T02830180  RH  054%=      5-min Rain = 0
KFR1 151851Z 04015KT 28/18 A2987 RMK A01 T02810178  RH  054%=      5-min Rain = 0
KFR1 151852Z 04012KT 28/18 A2987 RMK A01 T02800179  RH  054%=      5-min Rain = 0
KFR1 151853Z 03009KT 28/18 A2987 RMK A01 T02800183  RH  056%=      5-min Rain = 0
KFR1 151854Z 03012G17KT 28/18 A2987 RMK A01 T02810182  RH  055%=      5-min Rain = 0
KFR1 151855Z 02011G16KT 28/18 A2987 RMK A01 T02810182  RH  055%=      5-min Rain = 0
KFR1 151856Z 04010G17KT 28/18 A2987 RMK A01 T02810184  RH  056%=      5-min Rain = 0
KFR1 151857Z 04014G19KT 28/18 A2987 RMK A01 T02810183  RH  055%=      5-min Rain = 0
KFR1 151858Z 06015KT 28/18 A2987 RMK A01 T02820179  RH  054%=      5-min Rain = 0
KFR1 151859Z 05015KT 28/18 A2987 RMK A01 T02810180  RH  054%=      5-min Rain = 0
KFR1 151900Z 05016KT 28/18 A2987 RMK A01 T02810179  RH  054%=      5-min Rain = 0
KFR1 151901Z 04012KT 28/18 A2988 RMK A01 T02800182  RH  055%=      5-min Rain = 0
KFR1 151902Z 04011KT 28/18 A2988 RMK A01 T02800183  RH  055%=      5-min Rain = 0
KFR1 151903Z 04011KT 28/18 A2988 RMK A01 T02780182  RH  056%=      5-min Rain = 0
KFR1 151904Z 05013KT 28/18 A2988 RMK A01 T02790180  RH  055%=      5-min Rain = 0
KFR1 151905Z 03013G18KT 28/18 A2988 RMK A01 T02790179  RH  054%=      5-min Rain = 0
KFR1 151906Z 04011KT 28/18 A2988 RMK A01 T02790180  RH  055%=      5-min Rain = 0
KFR1 151907Z 04012KT 28/18 A2988 RMK A01 T02800181  RH  055%=      5-min Rain = 0
KFR1 151908Z 03008KT 28/19 A2988 RMK A01 T02810187  RH  057%=      5-min Rain = 0
KFR1 151909Z 04009KT 28/19 A2988 RMK A01 T02840186  RH  055%=      5-min Rain = 0
KFR1 151910Z 01011G17KT 28/19 A2988 RMK A01 T02840185  RH  055%=      5-min Rain = 0
KFR1 151911Z 01011G16KT 28/18 A2988 RMK A01 T02830182  RH  054%=      5-min Rain = 0
KFR1 151912Z 02011G16KT 28/18 A2988 RMK A01 T02820184  RH  055%=      5-min Rain = 0
KFR1 151913Z 02011G16KT 28/18 A2988 RMK A01 T02830183  RH  055%=      5-min Rain = 0
KFR1 151914Z 03014KT 28/18 A2988 RMK A01 T02800180  RH  055%=      5-min Rain = 0
KFR1 151915Z 02013KT 28/18 A2988 RMK A01 T02760178  RH  055%=      5-min Rain = 0
KFR1 151916Z 02015KT 28/18 A2988 RMK A01 T02750178  RH  055%=      5-min Rain = 0
KFR1 151917Z 02014KT 28/18 A2988 RMK A01 T02760178  RH  055%=      5-min Rain = 0
KFR1 151918Z 02010KT 28/18 A2988 RMK A01 T02770183  RH  056%=      5-min Rain = 0
KFR1 151919Z 03010G15KT 28/19 A2988 RMK A01 T02800186  RH  056%=      5-min Rain = 0
KFR1 151920Z 04011KT 28/19 A2988 RMK A01 T02830185  RH  055%=      5-min Rain = 0
KFR1 151921Z 04013G18KT 29/19 A2988 RMK A01 T02850187  RH  055%=      5-min Rain = 0
KFR1 151922Z 04011KT 29/18 A2988 RMK A01 T02860182  RH  054%=      5-min Rain = 0
KFR1 151923Z 01009G14KT 29/19 A2988 RMK A01 T02860188  RH  055%=      5-min Rain = 0
KFR1 151924Z 02012KT 29/18 A2988 RMK A01 T02870183  RH  053%=      5-min Rain = 0
KFR1 151925Z 02011KT 29/18 A2988 RMK A01 T02860184  RH  054%=      5-min Rain = 0
KFR1 151926Z 04010KT 28/18 A2988 RMK A01 T02840181  RH  054%=      5-min Rain = 0
KFR1 151927Z 04011KT 28/18 A2988 RMK A01 T02810180  RH  054%=      5-min Rain = 0
KFR1 151928Z 04010KT 28/18 A2989 RMK A01 T02790179  RH  055%=      5-min Rain = 0
KFR1 151929Z 05009KT 28/19 A2989 RMK A01 T02800185  RH  056%=      5-min Rain = 0
KFR1 151930Z 06008KT 28/19 A2988 RMK A01 T02840185  RH  055%=      5-min Rain = 0
KFR1 151931Z 05007KT 29/19 A2989 RMK A01 T02860186  RH  055%=      5-min Rain = 0
KFR1 151932Z 04010KT 29/19 A2988 RMK A01 T02870187  RH  055%=      5-min Rain = 0
KFR1 151933Z 04012KT 29/18 A2988 RMK A01 T02880184  RH  053%=      5-min Rain = 0
KFR1 151934Z 05011KT 29/18 A2988 RMK A01 T02870182  RH  053%=      5-min Rain = 0
KFR1 151935Z 04013KT 29/18 A2988 RMK A01 T02870179  RH  052%=      5-min Rain = 0
KFR1 151936Z 04010KT 29/18 A2988 RMK A01 T02860180  RH  053%=      5-min Rain = 0
KFR1 151937Z 05009KT 29/18 A2988 RMK A01 T02850184  RH  054%=      5-min Rain = 0
KFR1 151938Z 02010G16KT 29/19 A2988 RMK A01 T02870187  RH  055%=      5-min Rain = 0
KFR1 151939Z 03008KT 29/19 A2988 RMK A01 T02880186  RH  054%=      5-min Rain = 0
KFR1 151940Z 04013KT 29/19 A2988 RMK A01 T02890186  RH  054%=      5-min Rain = 0
KFR1 151941Z 04014KT 29/18 A2988 RMK A01 T02860181  RH  053%=      5-min Rain = 0
KFR1 151942Z 04012KT 28/18 A2988 RMK A01 T02820175  RH  052%=      5-min Rain = 0
KFR1 151943Z 05009KT 28/18 A2988 RMK A01 T02810182  RH  055%=      5-min Rain = 0
KFR1 151944Z 06012KT 28/18 A2988 RMK A01 T02830182  RH  054%=      5-min Rain = 0
KFR1 151945Z 06012KT 29/18 A2988 RMK A01 T02850179  RH  053%=      5-min Rain = 0
KFR1 151946Z 06010KT 29/18 A2988 RMK A01 T02850177  RH  052%=      5-min Rain = 0
KFR1 151947Z 07011KT 28/18 A2988 RMK A01 T02830176  RH  052%=      5-min Rain = 0
KFR1 151948Z 07010KT 28/18 A2988 RMK A01 T02830177  RH  053%=      5-min Rain = 0
KFR1 151949Z 06012G18KT 28/18 A2988 RMK A01 T02810177  RH  053%=      5-min Rain = 0
KFR1 151950Z 05012KT 28/18 A2988 RMK A01 T02810180  RH  054%=      5-min Rain = 0
KFR1 151951Z 05010KT 28/18 A2988 RMK A01 T02800179  RH  054%=      5-min Rain = 0
KFR1 151952Z 05011G16KT 28/18 A2988 RMK A01 T02780179  RH  055%=      5-min Rain = 0
KFR1 151953Z 05009KT 28/18 A2988 RMK A01 T02770182  RH  056%=      5-min Rain = 0
KFR1 151954Z 05011KT 28/18 A2988 RMK A01 T02790183  RH  056%=      5-min Rain = 0
KFR1 151955Z 04009KT 28/19 A2988 RMK A01 T02810185  RH  056%=      5-min Rain = 0
KFR1 151956Z 07009KT 28/19 A2988 RMK A01 T02830186  RH  055%=      5-min Rain = 0
KFR1 151957Z 06010KT 29/18 A2988 RMK A01 T02850184  RH  055%=      5-min Rain = 0
KFR1 151958Z 04015KT 29/18 A2988 RMK A01 T02850184  RH  054%=      5-min Rain = 0
KFR1 151959Z 05012KT 28/18 A2988 RMK A01 T02830180  RH  054%=      5-min Rain = 0
KFR1 152000Z 05011KT 28/18 A2988 RMK A01 T02820182  RH  054%=      5-min Rain = 0
KFR1 152001Z 04013KT 28/18 A2988 RMK A01 T02830183  RH  055%=      5-min Rain = 0
KFR1 152002Z 05014KT 28/18 A2987 RMK A01 T02840183  RH  054%=      5-min Rain = 0
KFR1 152003Z 03013KT 29/18 A2987 RMK A01 T02850179  RH  053%=      5-min Rain = 0
KFR1 152004Z 04014KT 29/18 A2987 RMK A01 T02850181  RH  053%=      5-min Rain = 0
KFR1 152005Z 06016KT 28/18 A2987 RMK A01 T02840181  RH  053%=      5-min Rain = 0
KFR1 152006Z 05014KT 28/18 A2987 RMK A01 T02830182  RH  054%=      5-min Rain = 0
KFR1 152007Z 06013KT 28/19 A2986 RMK A01 T02820185  RH  055%=      5-min Rain = 0
KFR1 152008Z 06013KT 28/19 A2986 RMK A01 T02830187  RH  056%=      5-min Rain = 0
KFR1 152009Z 04013KT 29/19 A2986 RMK A01 T02860190  RH  056%=      5-min Rain = 0
KFR1 152010Z 04013KT 29/19 A2986 RMK A01 T02880187  RH  054%=      5-min Rain = 0
KFR1 152011Z 04014KT 29/18 A2987 RMK A01 T02880180  RH  052%=      5-min Rain = 0
KFR1 152012Z 04011KT 29/18 A2987 RMK A01 T02860183  RH  054%=      5-min Rain = 0
KFR1 152013Z 04009KT 29/19 A2987 RMK A01 T02870185  RH  054%=      5-min Rain = 0
KFR1 152014Z 04010KT 29/19 A2987 RMK A01 T02880186  RH  054%=      5-min Rain = 0
KFR1 152015Z 03011KT 29/18 A2987 RMK A01 T02890184  RH  053%=      5-min Rain = 0
KFR1 152016Z 03010G16KT 29/19 A2987 RMK A01 T02880185  RH  054%=      5-min Rain = 0
KFR1 152017Z 05010KT 29/18 A2988 RMK A01 T02880181  RH  052%=      5-min Rain = 0
KFR1 152018Z 04011KT 29/18 A2988 RMK A01 T02870182  RH  053%=      5-min Rain = 0
KFR1 152019Z 05011KT 29/18 A2988 RMK A01 T02880182  RH  053%=      5-min Rain = 0
KFR1 152020Z 04012KT 29/19 A2988 RMK A01 T02880185  RH  054%=      5-min Rain = 0
KFR1 152021Z 05011KT 29/18 A2988 RMK A01 T02880182  RH  053%=      5-min Rain = 0
KFR1 152022Z 03012KT 29/18 A2988 RMK A01 T02880181  RH  052%=      5-min Rain = 0
KFR1 152023Z 04009KT 29/18 A2988 RMK A01 T02880179  RH  052%=      5-min Rain = 0
KFR1 152024Z 05011KT 29/18 A2988 RMK A01 T02870181  RH  053%=      5-min Rain = 0
KFR1 152025Z 03010KT 29/18 A2988 RMK A01 T02870183  RH  053%=      5-min Rain = 0
KFR1 152026Z 03012G17KT 29/19 A2988 RMK A01 T02890186  RH  054%=      5-min Rain = 0
KFR1 152027Z 05013KT 29/18 A2988 RMK A01 T02900183  RH  052%=      5-min Rain = 0
KFR1 152028Z 05011KT 29/18 A2988 RMK A01 T02890180  RH  052%=      5-min Rain = 0
KFR1 152029Z 04012KT 29/18 A2988 RMK A01 T02890181  RH  052%=      5-min Rain = 0
KFR1 152030Z 04011G16KT 29/18 A2988 RMK A01 T02890181  RH  052%=      5-min Rain = 0
KFR1 152031Z 04010KT 29/18 A2988 RMK A01 T02880183  RH  053%=      5-min Rain = 0
KFR1 152032Z 03007KT 29/18 A2988 RMK A01 T02880183  RH  053%=      5-min Rain = 0
KFR1 152033Z 05009KT 29/18 A2988 RMK A01 T02890182  RH  053%=      5-min Rain = 0
KFR1 152034Z 05007KT 29/18 A2988 RMK A01 T02880182  RH  053%=      5-min Rain = 0
KFR1 152035Z 06012G17KT 29/19 A2988 RMK A01 T02880185  RH  054%=      5-min Rain = 0
KFR1 152036Z 08013KT 29/18 A2988 RMK A01 T02890180  RH  052%=      5-min Rain = 0
KFR1 152037Z 08013G18KT 29/18 A2988 RMK A01 T02880183  RH  053%=      5-min Rain = 0
KFR1 152038Z 06011KT 29/18 A2988 RMK A01 T02880181  RH  052%=      5-min Rain = 0
KFR1 152039Z 05013KT 29/18 A2988 RMK A01 T02870183  RH  053%=      5-min Rain = 0
KFR1 152040Z 04013KT 29/18 A2988 RMK A01 T02870184  RH  054%=      5-min Rain = 0
KFR1 152041Z 04013KT 29/19 A2988 RMK A01 T02880185  RH  054%=      5-min Rain = 0
KFR1 152042Z 04015KT 29/18 A2988 RMK A01 T02870180  RH  052%=      5-min Rain = 0
KFR1 152043Z 04012KT 29/18 A2988 RMK A01 T02850176  RH  052%=      5-min Rain = 0
KFR1 152044Z 04011KT 28/18 A2988 RMK A01 T02840179  RH  053%=      5-min Rain = 0
KFR1 152045Z 05008KT 28/18 A2988 RMK A01 T02840181  RH  054%=      5-min Rain = 0
KFR1 152046Z 06007KT 29/18 A2988 RMK A01 T02860182  RH  053%=      5-min Rain = 0
KFR1 152047Z 04006KT 29/19 A2988 RMK A01 T02880188  RH  055%=      5-min Rain = 0
KFR1 152048Z 04008KT 29/19 A2988 RMK A01 T02900185  RH  053%=      5-min Rain = 0
KFR1 152049Z 05011KT 29/18 A2988 RMK A01 T02900184  RH  053%=      5-min Rain = 0
KFR1 152050Z 05011KT 29/18 A2988 RMK A01 T02880181  RH  052%=      5-min Rain = 0
KFR1 152051Z 06010KT 29/18 A2988 RMK A01 T02850182  RH  053%=      5-min Rain = 0
KFR1 152052Z 06014KT 28/18 A2988 RMK A01 T02840180  RH  053%=      5-min Rain = 0
KFR1 152053Z 05012KT 28/18 A2988 RMK A01 T02820179  RH  053%=      5-min Rain = 0
KFR1 152054Z 04012KT 28/18 A2988 RMK A01 T02810179  RH  054%=      5-min Rain = 0
KFR1 152055Z 04009KT 28/18 A2988 RMK A01 T02800179  RH  054%=      5-min Rain = 0
KFR1 152056Z 05008KT 28/18 A2988 RMK A01 T02790179  RH  055%=      5-min Rain = 0
KFR1 152057Z 05009KT 28/18 A2988 RMK A01 T02790179  RH  055%=      5-min Rain = 0
KFR1 152058Z 04012KT 28/18 A2988 RMK A01 T02810183  RH  055%=      5-min Rain = 0
KFR1 152059Z 03008KT 28/18 A2988 RMK A01 T02840184  RH  055%=      5-min Rain = 0
KFR1 152100Z 04009KT 29/19 A2988 RMK A01 T02860187  RH  055%=      5-min Rain = 0
KFR1 152101Z 04009KT 29/18 A2988 RMK A01 T02890184  RH  053%=      5-min Rain = 0
KFR1 152102Z 04009G14KT 29/18 A2987 RMK A01 T02910181  RH  051%=      5-min Rain = 0
KFR1 152103Z 06012KT 29/18 A2987 RMK A01 T02920183  RH  052%=      5-min Rain = 0
KFR1 152104Z 07011KT 29/18 A2987 RMK A01 T02920178  RH  050%=      5-min Rain = 0
KFR1 152105Z 07013KT 29/18 A2987 RMK A01 T02880177  RH  051%=      5-min Rain = 0
KFR1 152106Z 07010KT 29/18 A2987 RMK A01 T02850175  RH  051%=      5-min Rain = 0
KFR1 152107Z 07009KT 28/18 A2987 RMK A01 T02830179  RH  053%=      5-min Rain = 0
KFR1 152108Z 07009KT 28/18 A2987 RMK A01 T02830181  RH  054%=      5-min Rain = 0
KFR1 152109Z 08011KT 29/18 A2987 RMK A01 T02850184  RH  054%=      5-min Rain = 0
KFR1 152110Z 08012KT 29/18 A2987 RMK A01 T02860183  RH  054%=      5-min Rain = 0
KFR1 152111Z 07012KT 29/18 A2987 RMK A01 T02860184  RH  054%=      5-min Rain = 0
KFR1 152112Z 07011KT 29/18 A2987 RMK A01 T02870180  RH  053%=      5-min Rain = 0
KFR1 152113Z 07010KT 29/18 A2987 RMK A01 T02860182  RH  053%=      5-min Rain = 0
KFR1 152114Z 07015G20KT 29/18 A2987 RMK A01 T02860181  RH  053%=      5-min Rain = 0
KFR1 152115Z 05012G17KT 29/18 A2987 RMK A01 T02870179  RH  052%=      5-min Rain = 0
KFR1 152116Z 05011KT 29/18 A2987 RMK A01 T02870181  RH  053%=      5-min Rain = 0
KFR1 152117Z 05011KT 29/18 A2987 RMK A01 T02860179  RH  052%=      5-min Rain = 0
KFR1 152118Z 05011KT 29/18 A2987 RMK A01 T02850177  RH  052%=      5-min Rain = 0
KFR1 152119Z 05010KT 29/18 A2987 RMK A01 T02850180  RH  053%=      5-min Rain = 0
KFR1 152120Z 05009KT 29/18 A2987 RMK A01 T02880184  RH  053%=      5-min Rain = 0
KFR1 152121Z 04009KT 29/18 A2987 RMK A01 T02900184  RH  053%=      5-min Rain = 0
KFR1 152122Z 04009KT 29/18 A2987 RMK A01 T02910183  RH  052%=      5-min Rain = 0
KFR1 152123Z 05008KT 29/18 A2987 RMK A01 T02910180  RH  051%=      5-min Rain = 0
KFR1 152124Z 05008KT 29/18 A2987 RMK A01 T02910179  RH  051%=      5-min Rain = 0
KFR1 152125Z 03011G18KT 29/19 A2987 RMK A01 T02910185  RH  053%=      5-min Rain = 0
KFR1 152126Z 04016KT 29/18 A2987 RMK A01 T02920182  RH  052%=      5-min Rain = 0
KFR1 152127Z 07015KT 29/18 A2987 RMK A01 T02920179  RH  050%=      5-min Rain = 0
KFR1 152128Z 07015KT 29/17 A2987 RMK A01 T02890174  RH  050%=      5-min Rain = 0
KFR1 152129Z 06011KT 29/17 A2987 RMK A01 T02850174  RH  051%=      5-min Rain = 0
KFR1 152130Z 06012KT 28/18 A2987 RMK A01 T02830177  RH  053%=      5-min Rain = 0
KFR1 152131Z 06013KT 28/18 A2987 RMK A01 T02820175  RH  052%=      5-min Rain = 0
KFR1 152132Z 05011KT 28/18 A2987 RMK A01 T02840177  RH  052%=      5-min Rain = 0
KFR1 152133Z 05011KT 29/19 A2987 RMK A01 T02870186  RH  054%=      5-min Rain = 0
KFR1 152134Z 07015KT 29/18 A2986 RMK A01 T02900179  RH  051%=      5-min Rain = 0
KFR1 152135Z 06012KT 29/18 A2986 RMK A01 T02890175  RH  050%=      5-min Rain = 0
KFR1 152136Z 06013KT 29/18 A2986 RMK A01 T02890178  RH  051%=      5-min Rain = 0
KFR1 152137Z 05011KT 29/18 A2986 RMK A01 T02890177  RH  051%=      5-min Rain = 0
KFR1 152138Z 06008KT 29/18 A2986 RMK A01 T02890183  RH  053%=      5-min Rain = 0
KFR1 152139Z 06012KT 29/18 A2986 RMK A01 T02920183  RH  052%=      5-min Rain = 0
KFR1 152140Z 06013KT 29/18 A2986 RMK A01 T02910181  RH  051%=      5-min Rain = 0
KFR1 152141Z 06014KT 29/18 A2986 RMK A01 T02890180  RH  052%=      5-min Rain = 0
KFR1 152142Z 06013KT 29/18 A2986 RMK A01 T02860175  RH  051%=      5-min Rain = 0
KFR1 152143Z 05009KT 29/18 A2986 RMK A01 T02850177  RH  052%=      5-min Rain = 0
KFR1 152144Z 05010KT 29/18 A2986 RMK A01 T02850180  RH  053%=      5-min Rain = 0
KFR1 152145Z 05010KT 29/18 A2986 RMK A01 T02860179  RH  052%=      5-min Rain = 0
KFR1 152146Z 06009KT 29/18 A2986 RMK A01 T02880179  RH  052%=      5-min Rain = 0
KFR1 152147Z 06012KT 29/18 A2985 RMK A01 T02890179  RH  052%=      5-min Rain = 0
KFR1 152148Z 06012KT 29/18 A2985 RMK A01 T02900181  RH  052%=      5-min Rain = 0
KFR1 152149Z 06012KT 29/18 A2985 RMK A01 T02910181  RH  052%=      5-min Rain = 0
KFR1 152150Z 07012KT 29/18 A2985 RMK A01 T02900180  RH  052%=      5-min Rain = 0
KFR1 152151Z 07015KT 29/18 A2985 RMK A01 T02880175  RH  051%=      5-min Rain = 0
KFR1 152152Z 08015KT 28/17 A2985 RMK A01 T02840173  RH  051%=      5-min Rain = 0
KFR1 152153Z 08014KT 28/17 A2985 RMK A01 T02820174  RH  052%=      5-min Rain = 0
KFR1 152154Z 08015KT 28/17 A2985 RMK A01 T02800173  RH  052%=      5-min Rain = 0
KFR1 152155Z 07016KT 28/17 A2985 RMK A01 T02790174  RH  053%=      5-min Rain = 0
KFR1 152156Z 07014KT 28/17 A2985 RMK A01 T02790174  RH  053%=      5-min Rain = 0
KFR1 152157Z 07012KT 28/18 A2985 RMK A01 T02800176  RH  053%=      5-min Rain = 0
KFR1 152158Z 07010KT 28/18 A2985 RMK A01 T02820178  RH  053%=      5-min Rain = 0
KFR1 152159Z 06010KT 28/18 A2984 RMK A01 T02830180  RH  053%=      5-min Rain = 0
KFR1 152200Z 06009KT 28/18 A2984 RMK A01 T02840182  RH  054%=      5-min Rain = 0
KFR1 152201Z 06015G20KT 29/18 A2984 RMK A01 T02860184  RH  054%=      5-min Rain = 0
KFR1 152202Z 05015KT 29/18 A2984 RMK A01 T02880178  RH  051%=      5-min Rain = 0
KFR1 152203Z 06014KT 29/18 A2983 RMK A01 T02880176  RH  051%=      5-min Rain = 0
KFR1 152204Z 06014KT 29/18 A2983 RMK A01 T02890180  RH  052%=      5-min Rain = 0
KFR1 152205Z 06013G18KT 29/18 A2983 RMK A01 T02890179  RH  052%=      5-min Rain = 0
KFR1 152206Z 05015KT 29/18 A2983 RMK A01 T02900178  RH  051%=      5-min Rain = 0
KFR1 152207Z 05016KT 29/18 A2983 RMK A01 T02890176  RH  050%=      5-min Rain = 0
KFR1 152208Z 06016G21KT 29/18 A2982 RMK A01 T02880179  RH  052%=      5-min Rain = 0
KFR1 152209Z 07015KT 29/18 A2982 RMK A01 T02880177  RH  051%=      5-min Rain = 0
KFR1 152210Z 07015KT 29/18 A2982 RMK A01 T02870179  RH  052%=      5-min Rain = 0
KFR1 152211Z 08018G24KT 29/18 A2982 RMK A01 T02880181  RH  053%=      5-min Rain = 0
KFR1 152212Z 08018KT 29/18 A2982 RMK A01 T02890180  RH  052%=      5-min Rain = 0
KFR1 152213Z 07016KT 29/18 A2982 RMK A01 T02880181  RH  052%=      5-min Rain = 0
KFR1 152214Z 07016KT 29/18 A2982 RMK A01 T02880182  RH  053%=      5-min Rain = 0
KFR1 152215Z 07014KT 29/18 A2983 RMK A01 T02870183  RH  053%=      5-min Rain = 0
KFR1 152216Z 07014KT 29/18 A2983 RMK A01 T02880184  RH  053%=      5-min Rain = 0
KFR1 152217Z 07014G19KT 29/18 A2983 RMK A01 T02890179  RH  051%=      5-min Rain = 0
KFR1 152218Z 07016KT 29/18 A2983 RMK A01 T02880180  RH  052%=      5-min Rain = 0
KFR1 152219Z 07016KT 29/18 A2983 RMK A01 T02880178  RH  052%=      5-min Rain = 0
KFR1 152220Z 07014KT 29/18 A2984 RMK A01 T02880180  RH  052%=      5-min Rain = 0
KFR1 152221Z 06014KT 29/18 A2984 RMK A01 T02890180  RH  052%=      5-min Rain = 0
KFR1 152222Z 05012KT 29/18 A2984 RMK A01 T02890178  RH  051%=      5-min Rain = 0
KFR1 152223Z 05013KT 29/18 A2984 RMK A01 T02890180  RH  052%=      5-min Rain = 0
KFR1 152224Z 07015KT 29/18 A2984 RMK A01 T02890180  RH  052%=      5-min Rain = 0
KFR1 152225Z 07015KT 29/18 A2984 RMK A01 T02890179  RH  052%=      5-min Rain = 0
KFR1 152226Z 08016G21KT 29/18 A2984 RMK A01 T02890183  RH  053%=      5-min Rain = 0
KFR1 152227Z 07014KT 29/18 A2984 RMK A01 T02900179  RH  051%=      5-min Rain = 0
KFR1 152228Z 07014KT 29/18 A2983 RMK A01 T02890179  RH  052%=      5-min Rain = 0
KFR1 152229Z 08015G21KT 29/18 A2983 RMK A01 T02880181  RH  052%=      5-min Rain = 0
KFR1 152230Z 07017KT 29/18 A2983 RMK A01 T02880179  RH  052%=      5-min Rain = 0
KFR1 152231Z 07014G19KT 29/18 A2983 RMK A01 T02860177  RH  052%=      5-min Rain = 0
KFR1 152232Z 07014G19KT 29/18 A2983 RMK A01 T02850179  RH  053%=      5-min Rain = 0
KFR1 152233Z 06016KT 29/18 A2984 RMK A01 T02850178  RH  052%=      5-min Rain = 0
KFR1 152234Z 07014KT 28/18 A2984 RMK A01 T02840178  RH  053%=      5-min Rain = 0
KFR1 152235Z 08013KT 28/18 A2984 RMK A01 T02840178  RH  052%=      5-min Rain = 0
KFR1 152236Z 07011KT 29/18 A2984 RMK A01 T02850177  RH  052%=      5-min Rain = 0
KFR1 152237Z 08012KT 29/18 A2984 RMK A01 T02850179  RH  053%=      5-min Rain = 0
KFR1 152238Z 07012KT 29/18 A2984 RMK A01 T02850180  RH  053%=      5-min Rain = 0
KFR1 152239Z 06013KT 28/18 A2984 RMK A01 T02840180  RH  053%=      5-min Rain = 0
KFR1 152240Z 06015KT 28/18 A2984 RMK A01 T02830179  RH  053%=      5-min Rain = 0
KFR1 152241Z 06015KT 28/18 A2984 RMK A01 T02830177  RH  053%=      5-min Rain = 0
KFR1 152242Z 06015KT 28/18 A2984 RMK A01 T02820177  RH  053%=      5-min Rain = 0
KFR1 152243Z 07015KT 28/18 A2984 RMK A01 T02810177  RH  053%=      5-min Rain = 0
KFR1 152244Z 07015KT 28/18 A2985 RMK A01 T02800178  RH  054%=      5-min Rain = 0
KFR1 152245Z 07013KT 28/18 A2985 RMK A01 T02800176  RH  053%=      5-min Rain = 0
KFR1 152246Z 07013KT 28/18 A2985 RMK A01 T02790178  RH  054%=      5-min Rain = 0
KFR1 152247Z 07013KT 28/18 A2985 RMK A01 T02790179  RH  055%=      5-min Rain = 0
KFR1 152248Z 08012KT 28/18 A2985 RMK A01 T02790178  RH  054%=      5-min Rain = 0
KFR1 152249Z 07012KT 28/18 A2985 RMK A01 T02790180  RH  055%=      5-min Rain = 0
KFR1 152250Z 08012KT 28/18 A2985 RMK A01 T02790177  RH  054%=      5-min Rain = 0
KFR1 152251Z 08011KT 28/18 A2986 RMK A01 T02780178  RH  054%=      5-min Rain = 0
KFR1 152252Z 07011KT 28/18 A2986 RMK A01 T02780177  RH  054%=      5-min Rain = 0
KFR1 152253Z 08014KT 28/18 A2986 RMK A01 T02790178  RH  054%=      5-min Rain = 0
KFR1 152254Z 08012KT 28/18 A2985 RMK A01 T02790176  RH  054%=      5-min Rain = 0
KFR1 152255Z 07010KT 28/18 A2986 RMK A01 T02780179  RH  055%=      5-min Rain = 0
KFR1 152256Z 08011KT 28/18 A2986 RMK A01 T02780179  RH  055%=      5-min Rain = 0
KFR1 152257Z 08013KT 28/18 A2985 RMK A01 T02780179  RH  055%=      5-min Rain = 0
KFR1 152258Z 07010KT 28/18 A2986 RMK A01 T02780179  RH  055%=      5-min Rain = 0
KFR1 152259Z 07011G16KT 28/18 A2986 RMK A01 T02780178  RH  055%=      5-min Rain = 0
KFR1 152300Z 07012KT 28/18 A2985 RMK A01 T02780175  RH  054%=      5-min Rain = 0
KFR1 152301Z 07011KT 28/18 A2985 RMK A01 T02780176  RH  054%=      5-min Rain = 0
KFR1 152302Z 08009KT 28/18 A2986 RMK A01 T02780177  RH  054%=      5-min Rain = 0
KFR1 152303Z 08010KT 28/18 A2986 RMK A01 T02770179  RH  055%=      5-min Rain = 0
KFR1 152304Z 08008KT 28/18 A2986 RMK A01 T02770181  RH  056%=      5-min Rain = 0
KFR1 152305Z 07009KT 28/18 A2986 RMK A01 T02770180  RH  056%=      5-min Rain = 0
KFR1 152306Z 08009KT 28/18 A2986 RMK A01 T02760180  RH  056%=      5-min Rain = 0
KFR1 152307Z 08010KT 28/18 A2986 RMK A01 T02760180  RH  056%=      5-min Rain = 0
KFR1 152308Z 08011KT 28/18 A2986 RMK A01 T02760179  RH  056%=      5-min Rain = 0
KFR1 152309Z 07009KT 28/18 A2986 RMK A01 T02760178  RH  055%=      5-min Rain = 0
KFR1 152310Z 08008KT 28/18 A2986 RMK A01 T02760179  RH  055%=      5-min Rain = 0
KFR1 152311Z 08009KT 28/18 A2986 RMK A01 T02760180  RH  056%=      5-min Rain = 0
KFR1 152312Z 08010KT 28/18 A2986 RMK A01 T02750179  RH  056%=      5-min Rain = 0
KFR1 152313Z 08009KT 28/18 A2986 RMK A01 T02750179  RH  056%=      5-min Rain = 0
KFR1 152314Z 07008KT 28/18 A2985 RMK A01 T02750179  RH  056%=      5-min Rain = 0
KFR1 152315Z 07008KT 27/18 A2985 RMK A01 T02740180  RH  056%=      5-min Rain = 0
KFR1 152316Z 07010KT 27/18 A2985 RMK A01 T02740181  RH  057%=      5-min Rain = 0
KFR1 152317Z 07010KT 27/18 A2985 RMK A01 T02740179  RH  056%=      5-min Rain = 0
KFR1 152318Z 07009KT 27/18 A2985 RMK A01 T02740181  RH  057%=      5-min Rain = 0
KFR1 152319Z 07010KT 27/18 A2985 RMK A01 T02740180  RH  057%=      5-min Rain = 0
KFR1 152320Z 07012KT 27/18 A2985 RMK A01 T02740181  RH  057%=      5-min Rain = 0
KFR1 152321Z 07009KT 27/18 A2985 RMK A01 T02740181  RH  057%=      5-min Rain = 0
KFR1 152322Z 06010KT 27/18 A2985 RMK A01 T02740181  RH  057%=      5-min Rain = 0
KFR1 152323Z 08011KT 27/18 A2985 RMK A01 T02730179  RH  056%=      5-min Rain = 0
KFR1 152324Z 07009KT 27/18 A2985 RMK A01 T02730180  RH  057%=      5-min Rain = 0
KFR1 152325Z 07010KT 27/18 A2985 RMK A01 T02720181  RH  058%=      5-min Rain = 0
KFR1 152326Z 06010KT 27/18 A2985 RMK A01 T02710180  RH  057%=      5-min Rain = 0
KFR1 152327Z 07009KT 27/18 A2985 RMK A01 T02710180  RH  057%=      5-min Rain = 0
KFR1 152328Z 07010KT 27/18 A2985 RMK A01 T02710180  RH  057%=      5-min Rain = 0
KFR1 152329Z 06009KT 27/18 A2985 RMK A01 T02710181  RH  058%=      5-min Rain = 0
KFR1 152330Z 07009KT 27/18 A2985 RMK A01 T02710179  RH  057%=      5-min Rain = 0
KFR1 152331Z 07008KT 27/18 A2985 RMK A01 T02710181  RH  058%=      5-min Rain = 0
KFR1 152332Z 07008KT 27/18 A2985 RMK A01 T02700182  RH  058%=      5-min Rain = 0
KFR1 152333Z 07009KT 27/18 A2984 RMK A01 T02700182  RH  059%=      5-min Rain = 0
KFR1 152334Z 07008KT 27/18 A2984 RMK A01 T02690182  RH  059%=      5-min Rain = 0
KFR1 152335Z 07009KT 27/18 A2984 RMK A01 T02690183  RH  059%=      5-min Rain = 0
KFR1 152336Z 07010KT 27/18 A2984 RMK A01 T02690183  RH  059%=      5-min Rain = 0
KFR1 152337Z 07011KT 27/18 A2984 RMK A01 T02690182  RH  059%=      5-min Rain = 0
KFR1 152338Z 06010KT 27/18 A2984 RMK A01 T02690181  RH  059%=      5-min Rain = 0
KFR1 152339Z 07009KT 27/18 A2984 RMK A01 T02690183  RH  059%=      5-min Rain = 0
KFR1 152340Z 06011KT 27/18 A2984 RMK A01 T02690182  RH  059%=      5-min Rain = 0
KFR1 152341Z 06009KT 27/18 A2984 RMK A01 T02680181  RH  059%=      5-min Rain = 0
KFR1 152342Z 06008KT 27/18 A2984 RMK A01 T02690182  RH  059%=      5-min Rain = 0
KFR1 152343Z 06008KT 27/18 A2984 RMK A01 T02690182  RH  059%=      5-min Rain = 0
KFR1 152344Z 05007KT 27/18 A2984 RMK A01 T02680182  RH  059%=      5-min Rain = 0
KFR1 152345Z 05006KT 27/18 A2984 RMK A01 T02680182  RH  060%=      5-min Rain = 0
KFR1 152346Z 05005KT 27/18 A2984 RMK A01 T02680184  RH  060%=      5-min Rain = 0
KFR1 152347Z 05005KT 27/18 A2984 RMK A01 T02670184  RH  060%=      5-min Rain = 0
KFR1 152348Z 05004KT 27/18 A2984 RMK A01 T02660184  RH  061%=      5-min Rain = 0
KFR1 152349Z 06005KT 27/18 A2984 RMK A01 T02650183  RH  061%=      5-min Rain = 0
KFR1 152350Z 06004KT 27/18 A2985 RMK A01 T02650182  RH  060%=      5-min Rain = 0
KFR1 152351Z 06004KT 27/18 A2985 RMK A01 T02660182  RH  060%=      5-min Rain = 0
KFR1 152352Z 07004KT 27/18 A2985 RMK A01 T02660183  RH  060%=      5-min Rain = 0
KFR1 152353Z 08003KT 27/18 A2985 RMK A01 T02660184  RH  060%=      5-min Rain = 0
KFR1 152354Z 08003KT 27/18 A2986 RMK A01 T02660184  RH  061%=      5-min Rain = 0
KFR1 152355Z 10002KT 27/18 A2986 RMK A01 T02660184  RH  061%=      5-min Rain = 0
KFR1 152356Z 09004KT 27/18 A2986 RMK A01 T02650184  RH  061%=      5-min Rain = 0
KFR1 152357Z 09005KT 27/18 A2986 RMK A01 T02650184  RH  061%=      5-min Rain = 0
KFR1 152358Z 09004KT 27/18 A2986 RMK A01 T02650183  RH  061%=      5-min Rain = 0
KFR1 152359Z 09004KT 27/19 A2987 RMK A01 T02650185  RH  061%=      5-min Rain = 0
KFR1 160000Z 08005KT 27/18 A2987 RMK A01 T02650184  RH  061%=      5-min Rain = 0
KFR1 160001Z 08004KT 27/18 A2987 RMK A01 T02650182  RH  060%=      5-min Rain = 0
KFR1 160002Z 09003KT 27/18 A2987 RMK A01 T02650184  RH  061%=      5-min Rain = 0
KFR1 160003Z 09004KT 27/19 A2987 RMK A01 T02650186  RH  062%=      5-min Rain = 0
KFR1 160004Z 09004KT 26/19 A2987 RMK A01 T02640185  RH  062%=      5-min Rain = 0
KFR1 160005Z 08005KT 26/19 A2987 RMK A01 T02640185  RH  062%=      5-min Rain = 0
KFR1 160006Z 09005KT 26/18 A2987 RMK A01 T02640184  RH  061%=      5-min Rain = 0
KFR1 160007Z 09005KT 26/19 A2987 RMK A01 T02640185  RH  062%=      5-min Rain = 0
KFR1 160008Z 08004KT 26/19 A2987 RMK A01 T02640185  RH  062%=      5-min Rain = 0
KFR1 160009Z 08004KT 26/19 A2987 RMK A01 T02640187  RH  063%=      5-min Rain = 0
KFR1 160010Z 08005KT 26/19 A2987 RMK A01 T02630186  RH  063%=      5-min Rain = 0
KFR1 160011Z 08006KT 26/18 A2987 RMK A01 T02620184  RH  062%=      5-min Rain = 0
KFR1 160012Z 08006KT 26/19 A2987 RMK A01 T02630185  RH  062%=      5-min Rain = 0
KFR1 160013Z 08006KT 26/19 A2987 RMK A01 T02630185  RH  062%=      5-min Rain = 0
KFR1 160014Z 07006KT 26/19 A2987 RMK A01 T02630185  RH  062%=      5-min Rain = 0
KFR1 160015Z 08005KT 26/19 A2987 RMK A01 T02630185  RH  062%=      5-min Rain = 0
KFR1 160016Z 07005KT 26/19 A2987 RMK A01 T02630186  RH  063%=      5-min Rain = 0
KFR1 160017Z 07005KT 26/18 A2987 RMK A01 T02620184  RH  062%=      5-min Rain = 0
KFR1 160018Z 08004KT 26/19 A2987 RMK A01 T02620186  RH  063%=      5-min Rain = 0
KFR1 160019Z 08004KT 26/19 A2987 RMK A01 T02620187  RH  063%=      5-min Rain = 0
KFR1 160020Z 09003KT 26/19 A2988 RMK A01 T02610186  RH  063%=      5-min Rain = 0
KFR1 160021Z 10003KT 26/19 A2988 RMK A01 T02610186  RH  063%=      5-min Rain = 0
KFR1 160022Z 11003KT 26/19 A2988 RMK A01 T02610187  RH  063%=      5-min Rain = 0
KFR1 160023Z 11003KT 26/18 A2988 RMK A01 T02610184  RH  063%=      5-min Rain = 0
KFR1 160024Z 11003KT 26/19 A2988 RMK A01 T02620185  RH  062%=      5-min Rain = 0
KFR1 160025Z 11003KT 26/19 A2988 RMK A01 T02630185  RH  062%=      5-min Rain = 0
KFR1 160026Z 12003KT 26/19 A2988 RMK A01 T02640185  RH  062%=      5-min Rain = 0
KFR1 160027Z 12003KT 26/19 A2988 RMK A01 T02640186  RH  062%=      5-min Rain = 0
KFR1 160028Z 10003KT 26/19 A2988 RMK A01 T02640187  RH  063%=      5-min Rain = 0
KFR1 160029Z 09003KT 26/19 A2988 RMK A01 T02630190  RH  064%=      5-min Rain = 0
KFR1 160030Z 09004KT 26/19 A2988 RMK A01 T02620189  RH  064%=      5-min Rain = 0
KFR1 160031Z 08004KT 26/19 A2988 RMK A01 T02610190  RH  065%=      5-min Rain = 0
KFR1 160032Z 08005KT 26/19 A2988 RMK A01 T02600189  RH  065%=      5-min Rain = 0
KFR1 160033Z 08005KT 26/19 A2987 RMK A01 T02590186  RH  064%=      5-min Rain = 0
KFR1 160034Z 08005KT 26/19 A2987 RMK A01 T02600187  RH  064%=      5-min Rain = 0
KFR1 160035Z 08005KT 26/19 A2987 RMK A01 T02600187  RH  064%=      5-min Rain = 0
KFR1 160036Z 08006KT 26/19 A2987 RMK A01 T02600186  RH  064%=      5-min Rain = 0
KFR1 160037Z 07006KT 26/19 A2987 RMK A01 T02600186  RH  063%=      5-min Rain = 0
KFR1 160038Z 07006KT 26/19 A2987 RMK A01 T02610186  RH  063%=      5-min Rain = 0
KFR1 160039Z 07006KT 26/19 A2986 RMK A01 T02620187  RH  063%=      5-min Rain = 0
KFR1 160040Z 07006KT 26/19 A2986 RMK A01 T02620187  RH  063%=      5-min Rain = 0
KFR1 160041Z 06007KT 26/19 A2986 RMK A01 T02610187  RH  064%=      5-min Rain = 0
KFR1 160042Z 07006KT 26/19 A2986 RMK A01 T02610187  RH  064%=      5-min Rain = 0
KFR1 160043Z 06007KT 26/19 A2986 RMK A01 T02610188  RH  064%=      5-min Rain = 0
KFR1 160044Z 07008KT 26/19 A2986 RMK A01 T02600187  RH  064%=      5-min Rain = 0
KFR1 160045Z 08007KT 26/19 A2986 RMK A01 T02600187  RH  064%=      5-min Rain = 0
KFR1 160046Z 08006KT 26/19 A2986 RMK A01 T02600187  RH  064%=      5-min Rain = 0
KFR1 160047Z 08007KT 26/19 A2986 RMK A01 T02600189  RH  065%=      5-min Rain = 0
KFR1 160048Z 08007KT 26/19 A2986 RMK A01 T02590188  RH  065%=      5-min Rain = 0
KFR1 160049Z 08007KT 26/19 A2987 RMK A01 T02580189  RH  065%=      5-min Rain = 0
KFR1 160050Z 08006KT 26/19 A2986 RMK A01 T02570189  RH  066%=      5-min Rain = 0
KFR1 160051Z 08007KT 26/19 A2986 RMK A01 T02570189  RH  066%=      5-min Rain = 0
KFR1 160052Z 08006KT 26/19 A2986 RMK A01 T02570189  RH  066%=      5-min Rain = 0
KFR1 160053Z 09006KT 26/19 A2986 RMK A01 T02560189  RH  066%=      5-min Rain = 0
KFR1 160054Z 08006KT 26/19 A2986 RMK A01 T02560189  RH  066%=      5-min Rain = 0
KFR1 160055Z 09005KT 26/19 A2986 RMK A01 T02560189  RH  067%=      5-min Rain = 0
KFR1 160056Z 10005KT 26/19 A2986 RMK A01 T02550190  RH  067%=      5-min Rain = 0
KFR1 160057Z 14006KT 26/19 A2987 RMK A01 T02550190  RH  067%=      5-min Rain = 0
KFR1 160058Z 17011KT 26/19 A2987 RMK A01 T02550192  RH  068%=      5-min Rain = 0
KFR1 160059Z 18015KT 25/15 A2987 RMK A01 T02520145  RH  051%=      5-min Rain = 0
KFR1 160100Z 18014KT 25/12 A2987 RMK A01 T02470116  RH  044%=      5-min Rain = 0
KFR1 160101Z 17013KT 24/11 A2986 RMK A01 T02430105  RH  042%=      5-min Rain = 0
KFR1 160102Z 16012KT 24/10 A2986 RMK A01 T02400103  RH  042%=      5-min Rain = 0
KFR1 160103Z 16011KT 24/10 A2986 RMK A01 T02380101  RH  042%=      5-min Rain = 0
KFR1 160104Z 18008G14KT 24/10 A2986 RMK A01 T02370103  RH  043%=      5-min Rain = 0
KFR1 160105Z 19015KT 24/11 A2986 RMK A01 T02360105  RH  044%=      5-min Rain = 0
KFR1 160106Z 19015KT 24/10 A2986 RMK A01 T02350103  RH  043%=      5-min Rain = 0
KFR1 160107Z 18016KT 24/10 A2986 RMK A01 T02350101  RH  043%=      5-min Rain = 0
KFR1 160108Z 18015KT 24/10 A2986 RMK A01 T02360099  RH  042%=      5-min Rain = 0
KFR1 160109Z 18016KT 24/10 A2986 RMK A01 T02350098  RH  042%=      5-min Rain = 0
KFR1 160110Z 17012KT 24/10 A2986 RMK A01 T02350099  RH  042%=      5-min Rain = 0
KFR1 160111Z 16012G17KT 24/10 A2986 RMK A01 T02350099  RH  042%=      5-min Rain = 0
KFR1 160112Z 16011KT 23/10 A2986 RMK A01 T02340097  RH  042%=      5-min Rain = 0
KFR1 160113Z 16013G18KT 23/10 A2986 RMK A01 T02330099  RH  043%=      5-min Rain = 0
KFR1 160114Z 16013G18KT 23/10 A2986 RMK A01 T02320099  RH  043%=      5-min Rain = 0
KFR1 160115Z 17014KT 23/10 A2986 RMK A01 T02310098  RH  043%=      5-min Rain = 0
KFR1 160116Z 16013KT 23/10 A2985 RMK A01 T02310098  RH  043%=      5-min Rain = 0
KFR1 160117Z 16014KT 23/10 A2985 RMK A01 T02300095  RH  042%=      5-min Rain = 0
KFR1 160118Z 16012KT 23/10 A2985 RMK A01 T02300095  RH  042%=      5-min Rain = 0
KFR1 160119Z 16012KT 23/10 A2985 RMK A01 T02290096  RH  043%=      5-min Rain = 0
KFR1 160120Z 16013KT 23/10 A2985 RMK A01 T02280095  RH  043%=      5-min Rain = 0
KFR1 160121Z 15008KT 23/10 A2984 RMK A01 T02280096  RH  043%=      5-min Rain = 0
KFR1 160122Z 16009KT 23/10 A2984 RMK A01 T02270097  RH  044%=      5-min Rain = 0
KFR1 160123Z 16012KT 23/10 A2984 RMK A01 T02260097  RH  044%=      5-min Rain = 0
KFR1 160124Z 16013KT 23/10 A2984 RMK A01 T02250097  RH  044%=      5-min Rain = 0
KFR1 160125Z 16012KT 23/10 A2984 RMK A01 T02250098  RH  044%=      5-min Rain = 0
KFR1 160126Z 17013G19KT 22/10 A2983 RMK A01 T02240097  RH  044%=      5-min Rain = 0
KFR1 160127Z 17013G18KT 23/10 A2983 RMK A01 T02250095  RH  043%=      5-min Rain = 0
KFR1 160128Z 17014KT 23/10 A2983 RMK A01 T02260095  RH  043%=      5-min Rain = 0
KFR1 160129Z 17011KT 23/10 A2983 RMK A01 T02270095  RH  043%=      5-min Rain = 0
KFR1 160130Z 17011KT 23/09 A2983 RMK A01 T02270094  RH  043%=      5-min Rain = 0
KFR1 160131Z 17010KT 23/09 A2983 RMK A01 T02280092  RH  042%=      5-min Rain = 0
KFR1 160132Z 17009KT 23/09 A2983 RMK A01 T02290093  RH  042%=      5-min Rain = 0
KFR1 160133Z 17009KT 23/09 A2984 RMK A01 T02300091  RH  041%=      5-min Rain = 0
KFR1 160134Z 16007KT 23/09 A2984 RMK A01 T02330089  RH  040%=      5-min Rain = 0
KFR1 160135Z 16006KT 23/09 A2984 RMK A01 T02340090  RH  040%=      5-min Rain = 0
KFR1 160136Z 15005KT 24/09 A2984 RMK A01 T02350088  RH  039%=      5-min Rain = 0
KFR1 160137Z 14005KT 24/09 A2984 RMK A01 T02360087  RH  039%=      5-min Rain = 0
KFR1 160138Z 13005KT 24/09 A2984 RMK A01 T02370090  RH  039%=      5-min Rain = 0
KFR1 160139Z 13006KT 24/09 A2983 RMK A01 T02370091  RH  039%=      5-min Rain = 0
KFR1 160140Z 12005KT 24/09 A2983 RMK A01 T02360092  RH  040%=      5-min Rain = 0
KFR1 160141Z 12005KT 24/09 A2983 RMK A01 T02350093  RH  040%=      5-min Rain = 0
KFR1 160142Z 10004KT 23/09 A2983 RMK A01 T02340092  RH  040%=      5-min Rain = 0
KFR1 160143Z 11004KT 23/09 A2983 RMK A01 T02340091  RH  040%=      5-min Rain = 0
KFR1 160144Z 09003KT 23/09 A2983 RMK A01 T02340093  RH  041%=      5-min Rain = 0
KFR1 160145Z 10003KT 23/09 A2984 RMK A01 T02330093  RH  041%=      5-min Rain = 0
KFR1 160146Z 09004KT 23/09 A2984 RMK A01 T02330091  RH  040%=      5-min Rain = 0
KFR1 160147Z 09007KT 23/09 A2984 RMK A01 T02330093  RH  041%=      5-min Rain = 0
KFR1 160148Z 08011G16KT 23/10 A2984 RMK A01 T02330095  RH  042%=      5-min Rain = 0
KFR1 160149Z 10011KT 23/10 A2984 RMK A01 T02290097  RH  043%=      5-min Rain = 0
KFR1 160150Z 10009KT 22/10 A2984 RMK A01 T02240099  RH  045%=      5-min Rain = 0
KFR1 160151Z 10011KT 22/10 A2984 RMK A01 T02210102  RH  047%=      5-min Rain = 0
KFR1 160152Z 13007KT 22/10 A2984 RMK A01 T02190102  RH  047%=      5-min Rain = 0
KFR1 160153Z 13005KT 22/10 A2983 RMK A01 T02190100  RH  047%=      5-min Rain = 0
KFR1 160154Z 15003KT 22/10 A2983 RMK A01 T02190103  RH  048%=      5-min Rain = 0
KFR1 160155Z 11005KT 22/11 A2983 RMK A01 T02180107  RH  049%=      5-min Rain = 0
KFR1 160156Z 11007KT 22/11 A2983 RMK A01 T02170106  RH  049%=      5-min Rain = 0
KFR1 160157Z 11007KT 22/11 A2983 RMK A01 T02150105  RH  049%=      5-min Rain = 0
KFR1 160158Z 10009KT 22/11 A2982 RMK A01 T02150106  RH  050%=      5-min Rain = 0
KFR1 160159Z 10011KT 21/11 A2982 RMK A01 T02130107  RH  051%=      5-min Rain = 0
KFR1 160200Z 10013KT 21/11 A2982 RMK A01 T02130106  RH  050%=      5-min Rain = 0
KFR1 160201Z 09015KT 21/11 A2982 RMK A01 T02130107  RH  050%=      5-min Rain = 0
KFR1 160202Z 09015KT 21/11 A2982 RMK A01 T02130107  RH  051%=      5-min Rain = 0
KFR1 160203Z 09014G19KT 21/11 A2982 RMK A01 T02130108  RH  051%=      5-min Rain = 0
KFR1 160204Z 08015KT 21/11 A2982 RMK A01 T02130109  RH  052%=      5-min Rain = 0
KFR1 160205Z 08013KT 21/11 A2983 RMK A01 T02100110  RH  053%=      5-min Rain = 0
KFR1 160206Z 08013KT 21/11 A2983 RMK A01 T02090111  RH  053%=      5-min Rain = 0
KFR1 160207Z 08010KT 21/11 A2983 RMK A01 T02080111  RH  054%=      5-min Rain = 0
KFR1 160208Z 06009KT 21/11 A2984 RMK A01 T02070112  RH  054%=      5-min Rain = 0
KFR1 160209Z 06008KT 21/11 A2984 RMK A01 T02060113  RH  055%=      5-min Rain = 0
KFR1 160210Z 07008KT 21/11 A2984 RMK A01 T02050113  RH  055%=      5-min Rain = 0
KFR1 160211Z 07007KT 20/11 A2984 RMK A01 T02040113  RH  056%=      5-min Rain = 0
KFR1 160212Z 04004KT 20/11 A2984 RMK A01 T02040113  RH  056%=      5-min Rain = 0
KFR1 160213Z 04002KT 20/11 A2984 RMK A01 T02040113  RH  056%=      5-min Rain = 0
KFR1 160214Z 00002KT 20/11 A2984 RMK A01 T02040113  RH  056%=      5-min Rain = 0
KFR1 160215Z 35006KT 20/11 A2984 RMK A01 T02040113  RH  056%=      5-min Rain = 0
KFR1 160216Z 32005KT 21/12 A2985 RMK A01 T02050115  RH  056%=      5-min Rain = 0
KFR1 160217Z 30003KT 20/11 A2985 RMK A01 T02040114  RH  056%=      5-min Rain = 0
KFR1 160218Z 30004KT 21/11 A2985 RMK A01 T02050114  RH  056%=      5-min Rain = 0
KFR1 160219Z 31004KT 21/12 A2985 RMK A01 T02050115  RH  056%=      5-min Rain = 0
KFR1 160220Z 33006KT 21/12 A2986 RMK A01 T02060118  RH  057%=      5-min Rain = 0
KFR1 160221Z 00005KT 21/12 A2986 RMK A01 T02050119  RH  058%=      5-min Rain = 0
KFR1 160222Z 36006KT 21/12 A2986 RMK A01 T02050118  RH  057%=      5-min Rain = 0
KFR1 160223Z 35004KT 20/12 A2987 RMK A01 T02040116  RH  057%=      5-min Rain = 0
KFR1 160224Z 36004KT 20/12 A2987 RMK A01 T02040117  RH  057%=      5-min Rain = 0
KFR1 160225Z 01003KT 20/12 A2987 RMK A01 T02040117  RH  057%=      5-min Rain = 0
KFR1 160226Z 35003KT 20/12 A2987 RMK A01 T02040118  RH  058%=      5-min Rain = 0
KFR1 160227Z 35003KT 20/12 A2987 RMK A01 T02040116  RH  057%=      5-min Rain = 0
KFR1 160228Z 34002KT 20/12 A2987 RMK A01 T02040116  RH  057%=      5-min Rain = 0
KFR1 160229Z 36003KT 20/12 A2987 RMK A01 T02040117  RH  057%=      5-min Rain = 0
KFR1 160230Z 35004KT 21/12 A2987 RMK A01 T02050118  RH  058%=      5-min Rain = 0
KFR1 160231Z 00006KT 21/12 A2987 RMK A01 T02050119  RH  058%=      5-min Rain = 0
KFR1 160232Z 01007KT 20/12 A2988 RMK A01 T02040124  RH  060%=      5-min Rain = 0
KFR1 160233Z 01008KT 20/13 A2988 RMK A01 T02040127  RH  061%=      5-min Rain = 0
KFR1 160234Z 01009KT 20/13 A2988 RMK A01 T02030128  RH  062%=      5-min Rain = 0
KFR1 160235Z 00010KT 20/13 A2988 RMK A01 T02020128  RH  062%=      5-min Rain = 0
KFR1 160236Z 00011KT 20/13 A2988 RMK A01 T02030129  RH  062%=      5-min Rain = 0
KFR1 160237Z 35010KT 20/13 A2989 RMK A01 T02040129  RH  062%=      5-min Rain = 0
KFR1 160238Z 33010KT 20/13 A299 RMK A01 T02040130  RH  063%=      5-min Rain = 0
KFR1 160239Z 32010KT 20/13 A2991 RMK A01 T02040129  RH  062%=      5-min Rain = 0
KFR1 160240Z 30013G19KT 21/13 A2992 RMK A01 T02050129  RH  061%=      5-min Rain = 0
KFR1 160241Z 30012G19KT 21/13 A2993 RMK A01 T02070128  RH  061%=      5-min Rain = 0
KFR1 160242Z 31015G22KT 21/12 A2993 RMK A01 T02090122  RH  057%=      5-min Rain = 0
KFR1 160243Z 31014G23KT 21/12 A2993 RMK A01 T02130121  RH  056%=      5-min Rain = 0
KFR1 160244Z 32022G30KT 22/12 A2993 RMK A01 T02150122  RH  055%=      5-min Rain = 0
KFR1 160245Z 32025G30KT 22/12 A2994 RMK A01 T02170122  RH  055%=      5-min Rain = 0
KFR1 160246Z 33029G36KT 22/12 A2994 RMK A01 T02160122  RH  055%=      5-min Rain = 0
KFR1 160247Z 32031G38KT 21/12 A2994 RMK A01 T02130121  RH  056%=      5-min Rain = 0
KFR1 160248Z 31028G38KT 21/12 A2994 RMK A01 T02100122  RH  057%=      5-min Rain = 0
KFR1 160249Z 32026G36KT 21/12 A2994 RMK A01 T02090121  RH  057%=      5-min Rain = 0
KFR1 160250Z 33024KT 21/12 A2995 RMK A01 T02080122  RH  058%=      5-min Rain = 0
KFR1 160251Z 32026G39KT 21/12 A2995 RMK A01 T02080123  RH  058%=      5-min Rain = 0
KFR1 160252Z 33027G38KT 21/12 A2996 RMK A01 T02060120  RH  058%=      5-min Rain = 0
KFR1 160253Z 33034G42KT 20/12 A2996 RMK A01 T02040120  RH  059%=      5-min Rain = 0
KFR1 160254Z 33031G42KT 20/12 A2996 RMK A01 T02000119  RH  059%=      5-min Rain = 0
KFR1 160255Z 33034G44KT 20/12 A2996 RMK A01 T01980120  RH  061%=      5-min Rain = 0
KFR1 160256Z 33031G45KT 20/12 A2996 RMK A01 T01970117  RH  060%=      5-min Rain = 0
KFR1 160257Z 33032G49KT 19/12 A2996 RMK A01 T01940115  RH  060%=      5-min Rain = 0
KFR1 160258Z 33027G36KT 19/12 A2996 RMK A01 T01900119  RH  063%=      5-min Rain = 0
KFR1 160259Z 33028G42KT 19/12 A2995 RMK A01 T01870121  RH  065%=      5-min Rain = 0
KFR1 160300Z 33030G38KT 18/12 A2996 RMK A01 T01830124  RH  068%=      5-min Rain = 0
KFR1 160301Z 33031G40KT 18/13 A2996 RMK A01 T01770127  RH  072%=      5-min Rain = 0
KFR1 160302Z 33027G35KT 17/13 A2996 RMK A01 T01710129  RH  076%=      5-min Rain = 0
KFR1 160303Z 34027G39KT 17/13 A2996 RMK A01 T01670132  RH  079%=      5-min Rain = 0
KFR1 160304Z 34024G34KT 16/13 A2995 RMK A01 T01620131  RH  082%=      5-min Rain = 0
KFR1 160305Z 34027G36KT 16/13 A2995 RMK A01 T01580130  RH  083%=      5-min Rain = 0
KFR1 160306Z 35023G33KT 16/13 A2995 RMK A01 T01560128  RH  084%=      5-min Rain = 0
KFR1 160307Z 35022G28KT 15/13 A2995 RMK A01 T01540129  RH  085%=      5-min Rain = 0
KFR1 160308Z 35022G37KT 15/13 A2994 RMK A01 T01520128  RH  085%=      5-min Rain = 0
KFR1 160309Z 35021G28KT 15/13 A2994 RMK A01 T01520128  RH  086%=      5-min Rain = 0
KFR1 160310Z 34021G33KT 15/13 A2995 RMK A01 T01520127  RH  085%=      5-min Rain = 0
KFR1 160311Z 34023G31KT 15/13 A2995 RMK A01 T01520125  RH  084%=      5-min Rain = 0
KFR1 160312Z 35025G34KT 15/12 A2995 RMK A01 T01540121  RH  081%=      5-min Rain = 0
KFR1 160313Z 35022G28KT 16/12 A2995 RMK A01 T01550120  RH  080%=      5-min Rain = 0
KFR1 160314Z 34020G27KT 16/12 A2995 RMK A01 T01550120  RH  079%=      5-min Rain = 0
KFR1 160315Z 35021G28KT 16/12 A2995 RMK A01 T01560119  RH  079%=      5-min Rain = 0
KFR1 160316Z 34022G29KT 16/12 A2995 RMK A01 T01560119  RH  078%=      5-min Rain = 0
KFR1 160317Z 34019G28KT 16/12 A2995 RMK A01 T01560119  RH  078%=      5-min Rain = 0
KFR1 160318Z 34018G23KT 16/12 A2995 RMK A01 T01570119  RH  078%=      5-min Rain = 0
KFR1 160319Z 34018G27KT 16/12 A2995 RMK A01 T01570119  RH  078%=      5-min Rain = 0
KFR1 160320Z 34019G26KT 16/12 A2995 RMK A01 T01570118  RH  077%=      5-min Rain = 0
KFR1 160321Z 35020G28KT 16/12 A2995 RMK A01 T01570117  RH  077%=      5-min Rain = 0
KFR1 160322Z 34020G27KT 16/12 A2995 RMK A01 T01580118  RH  077%=      5-min Rain = 0
KFR1 160323Z 35019G26KT 16/12 A2995 RMK A01 T01580116  RH  076%=      5-min Rain = 0
KFR1 160324Z 35018G25KT 16/12 A2995 RMK A01 T01580117  RH  076%=      5-min Rain = 0
KFR1 160325Z 36018G23KT 16/12 A2995 RMK A01 T01580117  RH  076%=      5-min Rain = 0
KFR1 160326Z 00017G22KT 16/12 A2995 RMK A01 T01580117  RH  077%=      5-min Rain = 0
KFR1 160327Z 36017KT 16/12 A2995 RMK A01 T01570119  RH  078%=      5-min Rain = 0
KFR1 160328Z 36022G30KT 16/12 A2995 RMK A01 T01570120  RH  079%=      5-min Rain = 0
KFR1 160329Z 35019G26KT 16/12 A2995 RMK A01 T01560119  RH  079%=      5-min Rain = 0
KFR1 160330Z 36018KT 16/12 A2995 RMK A01 T01560123  RH  081%=      5-min Rain = 0
KFR1 160331Z 00020G26KT 16/12 A2995 RMK A01 T01560122  RH  080%=      5-min Rain = 0
KFR1 160332Z 01019G24KT 16/12 A2995 RMK A01 T01570124  RH  081%=      5-min Rain = 0
KFR1 160333Z 00020G28KT 16/12 A2994 RMK A01 T01570124  RH  081%=      5-min Rain = 0
KFR1 160334Z 01017G25KT 16/12 A2994 RMK A01 T01590124  RH  079%=      5-min Rain = 0
KFR1 160335Z 01019G25KT 16/13 A2995 RMK A01 T01600125  RH  080%=      5-min Rain = 0
KFR1 160336Z 00016G21KT 16/13 A2995 RMK A01 T01610126  RH  080%=      5-min Rain = 0
KFR1 160337Z 01015G20KT 16/13 A2995 RMK A01 T01610126  RH  080%=      5-min Rain = 0
KFR1 160338Z 00018KT 16/13 A2995 RMK A01 T01610127  RH  081%=      5-min Rain = 0
KFR1 160339Z 00016G22KT 16/13 A2995 RMK A01 T01610128  RH  081%=      5-min Rain = 0
KFR1 160340Z 00019G24KT 16/13 A2995 RMK A01 T01610129  RH  081%=      5-min Rain = 0
KFR1 160341Z 36019G25KT 16/13 A2995 RMK A01 T01630127  RH  079%=      5-min Rain = 0
KFR1 160342Z 00017KT 16/13 A2995 RMK A01 T01640128  RH  079%=      5-min Rain = 0
KFR1 160343Z 00016KT 17/13 A2994 RMK A01 T01650128  RH  079%=      5-min Rain = 0
KFR1 160344Z 36015G20KT 17/13 A2994 RMK A01 T01660129  RH  079%=      5-min Rain = 0
KFR1 160345Z 35015KT 17/13 A2994 RMK A01 T01670128  RH  078%=      5-min Rain = 0
KFR1 160346Z 36014G19KT 17/13 A2994 RMK A01 T01670128  RH  078%=      5-min Rain = 0
KFR1 160347Z 35014KT 17/13 A2994 RMK A01 T01680128  RH  077%=      5-min Rain = 0
KFR1 160348Z 35013G20KT 17/13 A2994 RMK A01 T01690130  RH  078%=      5-min Rain = 0
KFR1 160349Z 36016KT 17/13 A2994 RMK A01 T01700129  RH  077%=      5-min Rain = 0
KFR1 160350Z 35015KT 17/13 A2993 RMK A01 T01710128  RH  076%=      5-min Rain = 0
KFR1 160351Z 36012G17KT 17/13 A2993 RMK A01 T01720128  RH  076%=      5-min Rain = 0
KFR1 160352Z 35014KT 17/13 A2993 RMK A01 T01730129  RH  075%=      5-min Rain = 0
KFR1 160353Z 35017KT 17/13 A2993 RMK A01 T01740129  RH  075%=      5-min Rain = 0
KFR1 160354Z 35018G24KT 17/13 A2993 RMK A01 T01740128  RH  074%=      5-min Rain = 0
KFR1 160355Z 35018G27KT 18/13 A2992 RMK A01 T01750126  RH  073%=      5-min Rain = 0
KFR1 160356Z 35013KT 18/13 A2992 RMK A01 T01760126  RH  072%=      5-min Rain = 0
KFR1 160357Z 34016G23KT 18/13 A2992 RMK A01 T01760127  RH  073%=      5-min Rain = 0
KFR1 160358Z 35016G25KT 18/13 A2992 RMK A01 T01770127  RH  072%=      5-min Rain = 0
KFR1 160359Z 35016KT 18/13 A2992 RMK A01 T01780128  RH  072%=      5-min Rain = 0
KFR1 160400Z 36017G22KT 18/13 A2992 RMK A01 T01780130  RH  073%=      5-min Rain = 0
KFR1 160401Z 35016KT 18/13 A2992 RMK A01 T01780129  RH  073%=      5-min Rain = 0
KFR1 160402Z 36017G23KT 18/13 A2991 RMK A01 T01780128  RH  073%=      5-min Rain = 0
KFR1 160403Z 36019KT 18/13 A2992 RMK A01 T01780128  RH  072%=      5-min Rain = 0
KFR1 160404Z 36015KT 18/13 A2992 RMK A01 T01780130  RH  074%=      5-min Rain = 0
KFR1 160405Z 35018G24KT 18/13 A2992 RMK A01 T01770131  RH  074%=      5-min Rain = 0
KFR1 160406Z 00015KT 18/13 A2993 RMK A01 T01770131  RH  074%=      5-min Rain = 0
KFR1 160407Z 35017G22KT 18/13 A2993 RMK A01 T01770130  RH  074%=      5-min Rain = 0
KFR1 160408Z 35014G20KT 18/13 A2993 RMK A01 T01770131  RH  075%=      5-min Rain = 0
KFR1 160409Z 35018KT 18/13 A2993 RMK A01 T01760130  RH  074%=      5-min Rain = 0
KFR1 160410Z 35012G17KT 18/13 A2993 RMK A01 T01770130  RH  074%=      5-min Rain = 0
KFR1 160411Z 35017G22KT 18/13 A2993 RMK A01 T01780131  RH  074%=      5-min Rain = 0
KFR1 160412Z 35016KT 18/13 A2993 RMK A01 T01780129  RH  073%=      5-min Rain = 0
KFR1 160413Z 35016KT 18/13 A2993 RMK A01 T01790129  RH  072%=      5-min Rain = 0
KFR1 160414Z 34014G19KT 18/13 A2993 RMK A01 T01800126  RH  071%=      5-min Rain = 0
KFR1 160415Z 34012G18KT 18/13 A2993 RMK A01 T01810127  RH  071%=      5-min Rain = 0
KFR1 160416Z 34014G19KT 18/13 A2993 RMK A01 T01810126  RH  070%=      5-min Rain = 0
KFR1 160417Z 34017G26KT 18/12 A2993 RMK A01 T01820122  RH  068%=      5-min Rain = 0
KFR1 160418Z 33016G26KT 18/12 A2993 RMK A01 T01840120  RH  066%=      5-min Rain = 0
KFR1 160419Z 34015G20KT 19/12 A2993 RMK A01 T01860120  RH  066%=      5-min Rain = 0
KFR1 160420Z 34013G21KT 19/12 A2993 RMK A01 T01860120  RH  065%=      5-min Rain = 0
KFR1 160421Z 34017G23KT 19/12 A2993 RMK A01 T01870119  RH  064%=      5-min Rain = 0
KFR1 160422Z 33015G21KT 19/12 A2993 RMK A01 T01880118  RH  064%=      5-min Rain = 0
KFR1 160423Z 32015G20KT 19/12 A2993 RMK A01 T01890120  RH  064%=      5-min Rain = 0
KFR1 160424Z 33014G20KT 19/12 A2993 RMK A01 T01890120  RH  064%=      5-min Rain = 0
KFR1 160425Z 32015G21KT 19/12 A2993 RMK A01 T01900119  RH  063%=      5-min Rain = 0
KFR1 160426Z 32023G29KT 19/11 A2993 RMK A01 T01920114  RH  061%=      5-min Rain = 0
KFR1 160427Z 32019G26KT 20/11 A2994 RMK A01 T01950113  RH  059%=      5-min Rain = 0
KFR1 160428Z 32019G24KT 20/12 A2994 RMK A01 T01960115  RH  059%=      5-min Rain = 0
KFR1 160429Z 32019G25KT 20/11 A2994 RMK A01 T01960114  RH  059%=      5-min Rain = 0
KFR1 160430Z 32016G21KT 20/12 A2994 RMK A01 T01960115  RH  060%=      5-min Rain = 0
KFR1 160431Z 32018KT 20/12 A2994 RMK A01 T01950117  RH  061%=      5-min Rain = 0
KFR1 160432Z 32018KT 19/12 A2994 RMK A01 T01940118  RH  061%=      5-min Rain = 0
KFR1 160433Z 32018G23KT 19/12 A2993 RMK A01 T01920118  RH  062%=      5-min Rain = 0
KFR1 160434Z 32017G23KT 19/12 A2994 RMK A01 T01920118  RH  062%=      5-min Rain = 0
KFR1 160435Z 33015KT 19/12 A2994 RMK A01 T01920119  RH  063%=      5-min Rain = 0
KFR1 160436Z 32018KT 19/12 A2994 RMK A01 T01910120  RH  063%=      5-min Rain = 0
KFR1 160437Z 33015KT 19/12 A2994 RMK A01 T01910121  RH  064%=      5-min Rain = 0
KFR1 160438Z 33014KT 19/12 A2994 RMK A01 T01890121  RH  065%=      5-min Rain = 0
KFR1 160439Z 33013KT 19/12 A2993 RMK A01 T01880123  RH  066%=      5-min Rain = 0
KFR1 160440Z 33012KT 19/12 A2993 RMK A01 T01870122  RH  066%=      5-min Rain = 0
KFR1 160441Z 32014G19KT 19/12 A2993 RMK A01 T01870123  RH  066%=      5-min Rain = 0
KFR1 160442Z 33015G22KT 19/12 A2993 RMK A01 T01870121  RH  066%=      5-min Rain = 0
KFR1 160443Z 33012KT 19/12 A2993 RMK A01 T01880120  RH  065%=      5-min Rain = 0
KFR1 160444Z 33014G20KT 19/12 A2992 RMK A01 T01880123  RH  066%=      5-min Rain = 0
KFR1 160445Z 33016KT 19/12 A2992 RMK A01 T01880120  RH  065%=      5-min Rain = 0
KFR1 160446Z 33014G20KT 19/12 A2992 RMK A01 T01880120  RH  065%=      5-min Rain = 0
KFR1 160447Z 32014KT 19/12 A2992 RMK A01 T01890121  RH  065%=      5-min Rain = 0
KFR1 160448Z 33013KT 19/12 A2992 RMK A01 T01890121  RH  065%=      5-min Rain = 0
KFR1 160449Z 33013KT 19/12 A2992 RMK A01 T01890122  RH  065%=      5-min Rain = 0
KFR1 160450Z 33013KT 19/12 A2992 RMK A01 T01880121  RH  065%=      5-min Rain = 0
KFR1 160451Z 34017G24KT 19/12 A2991 RMK A01 T01880122  RH  065%=      5-min Rain = 0
KFR1 160452Z 34015G23KT 19/12 A2991 RMK A01 T01880119  RH  064%=      5-min Rain = 0
KFR1 160453Z 34017G22KT 19/12 A2991 RMK A01 T01890120  RH  065%=      5-min Rain = 0
KFR1 160454Z 33019G25KT 19/12 A2991 RMK A01 T01890120  RH  064%=      5-min Rain = 0
KFR1 160455Z 34019G24KT 19/12 A299 RMK A01 T01900120  RH  064%=      5-min Rain = 0
KFR1 160456Z 33016G23KT 19/12 A299 RMK A01 T01900120  RH  064%=      5-min Rain = 0
KFR1 160457Z 34014G20KT 19/12 A299 RMK A01 T01900122  RH  065%=      5-min Rain = 0
KFR1 160458Z 35016KT 19/12 A2989 RMK A01 T01890122  RH  065%=      5-min Rain = 0
KFR1 160459Z 34014KT 19/12 A2989 RMK A01 T01890121  RH  065%=      5-min Rain = 0

Page generated in 0.1904 seconds.